TSO123 UUDD-UHWW
Flight info
| Callsign | TSO123 |
|---|---|
| Flight time | 7h 48m |
| Altitude | 36000 |
| Route | UUDD/31L K0907F330 OLMU4Q OLMUN T629 IPSIL T830 LAMGU N604 HMN L870 STONI/K0893F350 L870 PTG B123 LANAP W24 BIMTA N746 GU N992 DIDEK DCT REZOK/K0896F360 B355 BG G714 DAGES DAGE2N UHWW/25L |
| Aircraft | B773/H-L/L |
Departure
| Time | 2026-04-25 12:26 |
|---|---|
| Airport | Domodedovo International Airport (UUDD) |
Arrival
| Time | 2026-04-25 20:15 |
|---|---|
| Airport | Vladivostok International Airport (UHWW) |
| Time | Latitude | Longitude | Altitude | Speed | Heading |
|---|---|---|---|---|---|
| 2026-04-25 11:56 | 55.41137 | 37.89973 | 603 ft | 0 kts | 17° |
| 2026-04-25 12:11 | 55.41130 | 37.89969 | 578 ft | 3 kts | 17° |
| 2026-04-25 12:12 | 55.41112 | 37.89959 | 576 ft | 3 kts | 17° |
| 2026-04-25 12:12 | 55.41100 | 37.89953 | 574 ft | 3 kts | 9° |
| 2026-04-25 12:12 | 55.41076 | 37.89951 | 579 ft | 3 kts | 344° |
| 2026-04-25 12:12 | 55.41062 | 37.89960 | 573 ft | 3 kts | 315° |
| 2026-04-25 12:13 | 55.41055 | 37.89975 | 577 ft | 3 kts | 281° |
| 2026-04-25 12:13 | 55.41054 | 37.90003 | 574 ft | 3 kts | 257° |
| 2026-04-25 12:13 | 55.41060 | 37.90035 | 573 ft | 3 kts | 243° |
| 2026-04-25 12:13 | 55.41068 | 37.90060 | 578 ft | 2 kts | 235° |
| 2026-04-25 12:14 | 55.41079 | 37.90090 | 579 ft | 3 kts | 235° |
| 2026-04-25 12:14 | 55.41088 | 37.90112 | 573 ft | 0 kts | 235° |
| 2026-04-25 12:15 | 55.41088 | 37.90113 | 573 ft | 0 kts | 235° |
| 2026-04-25 12:17 | 55.41078 | 37.90087 | 574 ft | 6 kts | 236° |
| 2026-04-25 12:17 | 55.41051 | 37.90018 | 574 ft | 8 kts | 236° |
| 2026-04-25 12:18 | 55.41015 | 37.89924 | 580 ft | 10 kts | 236° |
| 2026-04-25 12:18 | 55.40970 | 37.89807 | 582 ft | 13 kts | 236° |
| 2026-04-25 12:18 | 55.40915 | 37.89664 | 580 ft | 15 kts | 236° |
| 2026-04-25 12:18 | 55.40846 | 37.89518 | 577 ft | 16 kts | 226° |
| 2026-04-25 12:19 | 55.40740 | 37.89286 | 580 ft | 10 kts | 205° |
| 2026-04-25 12:19 | 55.40653 | 37.89330 | 577 ft | 11 kts | 148° |
| 2026-04-25 12:19 | 55.40588 | 37.89407 | 578 ft | 12 kts | 146° |
| 2026-04-25 12:20 | 55.40517 | 37.89492 | 577 ft | 13 kts | 146° |
| 2026-04-25 12:20 | 55.40444 | 37.89580 | 575 ft | 13 kts | 146° |
| 2026-04-25 12:20 | 55.40370 | 37.89668 | 574 ft | 13 kts | 146° |
| 2026-04-25 12:20 | 55.40296 | 37.89756 | 571 ft | 13 kts | 146° |
| 2026-04-25 12:21 | 55.40222 | 37.89845 | 568 ft | 13 kts | 146° |
| 2026-04-25 12:21 | 55.40147 | 37.89934 | 562 ft | 13 kts | 145° |
| 2026-04-25 12:21 | 55.40074 | 37.90023 | 566 ft | 13 kts | 145° |
| 2026-04-25 12:21 | 55.40000 | 37.90113 | 568 ft | 13 kts | 145° |
| 2026-04-25 12:22 | 55.39926 | 37.90203 | 565 ft | 13 kts | 145° |
| 2026-04-25 12:22 | 55.39852 | 37.90292 | 560 ft | 13 kts | 146° |
| 2026-04-25 12:22 | 55.39777 | 37.90380 | 564 ft | 13 kts | 146° |
| 2026-04-25 12:22 | 55.39703 | 37.90471 | 551 ft | 13 kts | 144° |
| 2026-04-25 12:23 | 55.39644 | 37.90540 | 550 ft | 8 kts | 154° |
| 2026-04-25 12:23 | 55.39597 | 37.90517 | 549 ft | 4 kts | 225° |
| 2026-04-25 12:23 | 55.39579 | 37.90479 | 549 ft | 4 kts | 232° |
| 2026-04-25 12:23 | 55.39564 | 37.90438 | 549 ft | 4 kts | 236° |
| 2026-04-25 12:24 | 55.39549 | 37.90377 | 548 ft | 7 kts | 261° |
| 2026-04-25 12:24 | 55.39560 | 37.90294 | 547 ft | 7 kts | 298° |
| 2026-04-25 12:24 | 55.39591 | 37.90241 | 548 ft | 0 kts | 325° |
| 2026-04-25 12:26 | 55.39639 | 37.90185 | 550 ft | 22 kts | 326° |
| 2026-04-25 12:26 | 55.39995 | 37.89756 | 570 ft | 103 kts | 326° |
| 2026-04-25 12:26 | 55.40803 | 37.88784 | 615 ft | 173 kts | 326° |
| 2026-04-25 12:26 | 55.41823 | 37.87549 | 1404 ft | 172 kts | 321° |
| 2026-04-25 12:27 | 55.42770 | 37.86194 | 2418 ft | 179 kts | 311° |
| 2026-04-25 12:27 | 55.43564 | 37.84443 | 2893 ft | 192 kts | 306° |
| 2026-04-25 12:27 | 55.44441 | 37.82584 | 3394 ft | 196 kts | 309° |
| 2026-04-25 12:27 | 55.45327 | 37.80762 | 3942 ft | 201 kts | 309° |
| 2026-04-25 12:28 | 55.46246 | 37.78929 | 3835 ft | 203 kts | 310° |
| 2026-04-25 12:28 | 55.47390 | 37.77416 | 4030 ft | 219 kts | 339° |
| 2026-04-25 12:28 | 55.48929 | 37.76654 | 3988 ft | 233 kts | 340° |
| 2026-04-25 12:28 | 55.50464 | 37.75716 | 3991 ft | 234 kts | 337° |
| 2026-04-25 12:29 | 55.51977 | 37.74744 | 3989 ft | 229 kts | 340° |
| 2026-04-25 12:29 | 55.53541 | 37.74552 | 4016 ft | 232 kts | 17° |
| 2026-04-25 12:29 | 55.54926 | 37.76140 | 4325 ft | 248 kts | 40° |
| 2026-04-25 12:29 | 55.56370 | 37.77985 | 4702 ft | 263 kts | 26° |
| 2026-04-25 12:30 | 55.57452 | 37.78979 | 5222 ft | 266 kts | 25° |
| 2026-04-25 12:30 | 55.59611 | 37.81139 | 6015 ft | 272 kts | 28° |
| 2026-04-25 12:30 | 55.61264 | 37.82877 | 5995 ft | 280 kts | 28° |
| 2026-04-25 12:30 | 55.62920 | 37.84651 | 6016 ft | 276 kts | 33° |
| 2026-04-25 12:31 | 55.64175 | 37.87149 | 5994 ft | 276 kts | 67° |
| 2026-04-25 12:31 | 55.64465 | 37.90463 | 6374 ft | 277 kts | 94° |
| 2026-04-25 12:31 | 55.64142 | 37.93876 | 7019 ft | 285 kts | 103° |
| 2026-04-25 12:31 | 55.63688 | 37.97321 | 7724 ft | 291 kts | 102° |
| 2026-04-25 12:32 | 55.63231 | 38.00856 | 8501 ft | 296 kts | 102° |
| 2026-04-25 12:32 | 55.62768 | 38.04432 | 9241 ft | 301 kts | 102° |
| 2026-04-25 12:32 | 55.62297 | 38.08074 | 9869 ft | 306 kts | 101° |
| 2026-04-25 12:32 | 55.61826 | 38.11724 | 10040 ft | 312 kts | 101° |
| 2026-04-25 12:33 | 55.61343 | 38.15486 | 10045 ft | 312 kts | 101° |
| 2026-04-25 12:33 | 55.60860 | 38.19281 | 10284 ft | 324 kts | 101° |
| 2026-04-25 12:33 | 55.60357 | 38.23243 | 10851 ft | 333 kts | 101° |
| 2026-04-25 12:33 | 55.59841 | 38.27276 | 11514 ft | 340 kts | 101° |
| 2026-04-25 12:34 | 55.59317 | 38.31382 | 12231 ft | 345 kts | 101° |
| 2026-04-25 12:34 | 55.58785 | 38.35538 | 12923 ft | 348 kts | 101° |
| 2026-04-25 12:34 | 55.58243 | 38.39741 | 13033 ft | 354 kts | 101° |
| 2026-04-25 12:34 | 55.57923 | 38.42549 | 13010 ft | 349 kts | 94° |
| 2026-04-25 12:35 | 55.58406 | 38.47974 | 13220 ft | 339 kts | 58° |
| 2026-04-25 12:35 | 55.59605 | 38.51529 | 13834 ft | 338 kts | 53° |
| 2026-04-25 12:35 | 55.60822 | 38.55135 | 14468 ft | 343 kts | 55° |
| 2026-04-25 12:35 | 55.62024 | 38.58800 | 15200 ft | 345 kts | 54° |
| 2026-04-25 12:36 | 55.63234 | 38.62478 | 15720 ft | 349 kts | 54° |
| 2026-04-25 12:36 | 55.64470 | 38.66216 | 16346 ft | 352 kts | 54° |
| 2026-04-25 12:36 | 55.65708 | 38.69964 | 16726 ft | 356 kts | 54° |
| 2026-04-25 12:36 | 55.66971 | 38.73784 | 16686 ft | 359 kts | 54° |
| 2026-04-25 12:37 | 55.68210 | 38.77550 | 16691 ft | 358 kts | 54° |
| 2026-04-25 12:37 | 55.69454 | 38.81337 | 16682 ft | 355 kts | 54° |
| 2026-04-25 12:37 | 55.70696 | 38.85115 | 16677 ft | 354 kts | 54° |
| 2026-04-25 12:37 | 55.71932 | 38.88884 | 16689 ft | 353 kts | 54° |
| 2026-04-25 12:38 | 55.73165 | 38.92642 | 16688 ft | 351 kts | 53° |
| 2026-04-25 12:38 | 55.74593 | 38.96081 | 16830 ft | 346 kts | 42° |
| 2026-04-25 12:38 | 55.76279 | 38.99174 | 17416 ft | 352 kts | 39° |
| 2026-04-25 12:38 | 55.78005 | 39.02206 | 18102 ft | 355 kts | 39° |
| 2026-04-25 12:39 | 55.79748 | 39.05337 | 18736 ft | 359 kts | 40° |
| 2026-04-25 12:39 | 55.81489 | 39.08558 | 19348 ft | 363 kts | 41° |
| 2026-04-25 12:39 | 55.83232 | 39.11839 | 19960 ft | 367 kts | 41° |
| 2026-04-25 12:39 | 55.84990 | 39.15172 | 20517 ft | 372 kts | 41° |
| 2026-04-25 12:40 | 55.86803 | 39.18623 | 20693 ft | 391 kts | 42° |
| 2026-04-25 12:40 | 55.88695 | 39.22238 | 20844 ft | 408 kts | 42° |
| 2026-04-25 12:40 | 55.90669 | 39.26015 | 20987 ft | 425 kts | 42° |
| 2026-04-25 12:40 | 55.92709 | 39.29926 | 21236 ft | 437 kts | 42° |
| 2026-04-25 12:41 | 55.94835 | 39.33769 | 21636 ft | 443 kts | 39° |
| 2026-04-25 12:41 | 55.97106 | 39.37512 | 22185 ft | 447 kts | 37° |
| 2026-04-25 12:41 | 55.99417 | 39.41237 | 22770 ft | 450 kts | 38° |
| 2026-04-25 12:41 | 56.01747 | 39.45034 | 23338 ft | 454 kts | 38° |
| 2026-04-25 12:42 | 56.04069 | 39.48888 | 23786 ft | 458 kts | 38° |
| 2026-04-25 12:42 | 56.04855 | 39.50205 | 23940 ft | 459 kts | 38° |
| 2026-04-25 12:42 | 56.08665 | 39.56897 | 24610 ft | 466 kts | 46° |
| 2026-04-25 12:42 | 56.10554 | 39.61710 | 24868 ft | 478 kts | 54° |
| 2026-04-25 12:43 | 56.12229 | 39.66774 | 25326 ft | 481 kts | 56° |
| 2026-04-25 12:43 | 56.13941 | 39.71936 | 25810 ft | 483 kts | 55° |
| 2026-04-25 12:43 | 56.17492 | 39.82260 | 26641 ft | 489 kts | 54° |
| 2026-04-25 12:44 | 56.19316 | 39.87420 | 27022 ft | 492 kts | 53° |
| 2026-04-25 12:44 | 56.21165 | 39.92617 | 27408 ft | 495 kts | 53° |
| 2026-04-25 12:44 | 56.24897 | 40.03112 | 28168 ft | 501 kts | 53° |
| 2026-04-25 12:45 | 56.26136 | 40.06612 | 28395 ft | 503 kts | 53° |
| 2026-04-25 12:45 | 56.28629 | 40.13677 | 28843 ft | 507 kts | 54° |
| 2026-04-25 12:45 | 56.32409 | 40.24443 | 29608 ft | 509 kts | 54° |
| 2026-04-25 12:46 | 56.34288 | 40.29818 | 30037 ft | 507 kts | 54° |
| 2026-04-25 12:46 | 56.36168 | 40.35205 | 30425 ft | 506 kts | 54° |
| 2026-04-25 12:46 | 56.38045 | 40.40593 | 30763 ft | 507 kts | 54° |
| 2026-04-25 12:46 | 56.39916 | 40.45974 | 31099 ft | 507 kts | 54° |
| 2026-04-25 12:47 | 56.41763 | 40.51294 | 31452 ft | 506 kts | 54° |
| 2026-04-25 12:47 | 56.43627 | 40.56685 | 31805 ft | 506 kts | 55° |
| 2026-04-25 12:47 | 56.45331 | 40.62271 | 32118 ft | 509 kts | 61° |
| 2026-04-25 12:47 | 56.46730 | 40.68179 | 32442 ft | 512 kts | 67° |
| 2026-04-25 12:48 | 56.47790 | 40.74340 | 32640 ft | 517 kts | 72° |
| 2026-04-25 12:48 | 56.48699 | 40.80663 | 32680 ft | 519 kts | 73° |
| 2026-04-25 12:48 | 56.50517 | 40.93277 | 32674 ft | 515 kts | 72° |
| 2026-04-25 12:49 | 56.52353 | 41.05773 | 32683 ft | 513 kts | 72° |
| 2026-04-25 12:49 | 56.54185 | 41.18162 | 32685 ft | 513 kts | 72° |
| 2026-04-25 12:50 | 56.56020 | 41.30644 | 32681 ft | 513 kts | 72° |
| 2026-04-25 12:50 | 56.57843 | 41.43166 | 32681 ft | 514 kts | 72° |
| 2026-04-25 12:51 | 56.59656 | 41.55730 | 32679 ft | 515 kts | 72° |
| 2026-04-25 12:51 | 56.61445 | 41.68226 | 32678 ft | 516 kts | 72° |
| 2026-04-25 12:52 | 56.63236 | 41.80840 | 32673 ft | 516 kts | 72° |
| 2026-04-25 12:52 | 56.65017 | 41.93483 | 32667 ft | 516 kts | 73° |
| 2026-04-25 12:53 | 56.66785 | 42.06144 | 32661 ft | 516 kts | 73° |
| 2026-04-25 12:53 | 56.68528 | 42.18715 | 32662 ft | 516 kts | 73° |
| 2026-04-25 12:54 | 56.70268 | 42.31375 | 32654 ft | 516 kts | 73° |
| 2026-04-25 12:54 | 56.71994 | 42.44036 | 32655 ft | 515 kts | 73° |
| 2026-04-25 12:55 | 56.73418 | 42.54542 | 32655 ft | 515 kts | 73° |
| 2026-04-25 12:55 | 56.75631 | 42.69153 | 32648 ft | 513 kts | 69° |
| 2026-04-25 12:56 | 56.77738 | 42.81568 | 32650 ft | 513 kts | 69° |
| 2026-04-25 12:56 | 56.79810 | 42.94005 | 32647 ft | 513 kts | 70° |
| 2026-04-25 12:57 | 56.81829 | 43.06500 | 32653 ft | 513 kts | 70° |
| 2026-04-25 12:57 | 56.83806 | 43.18934 | 32645 ft | 514 kts | 70° |
| 2026-04-25 12:58 | 56.85785 | 43.31471 | 32647 ft | 514 kts | 70° |
| 2026-04-25 12:58 | 56.87754 | 43.44022 | 32640 ft | 514 kts | 70° |
| 2026-04-25 12:59 | 56.89711 | 43.56579 | 32645 ft | 514 kts | 70° |
| 2026-04-25 12:59 | 56.91657 | 43.69163 | 32638 ft | 514 kts | 70° |
| 2026-04-25 13:00 | 56.92939 | 43.77505 | 32635 ft | 514 kts | 70° |
| 2026-04-25 13:00 | 56.95495 | 43.94257 | 32634 ft | 513 kts | 70° |
| 2026-04-25 13:01 | 56.97399 | 44.06857 | 32630 ft | 513 kts | 71° |
| 2026-04-25 13:01 | 56.99291 | 44.19466 | 32622 ft | 512 kts | 71° |
| 2026-04-25 13:02 | 57.01154 | 44.31978 | 32628 ft | 512 kts | 71° |
| 2026-04-25 13:02 | 57.03014 | 44.44574 | 32632 ft | 511 kts | 71° |
| 2026-04-25 13:03 | 57.04861 | 44.57171 | 32625 ft | 511 kts | 71° |
| 2026-04-25 13:03 | 57.06694 | 44.69778 | 32619 ft | 510 kts | 71° |
| 2026-04-25 13:04 | 57.08514 | 44.82387 | 32625 ft | 510 kts | 71° |
| 2026-04-25 13:04 | 57.10305 | 44.94902 | 32605 ft | 510 kts | 72° |
| 2026-04-25 13:05 | 57.12095 | 45.07509 | 32626 ft | 509 kts | 72° |
| 2026-04-25 13:05 | 57.13874 | 45.20137 | 32603 ft | 509 kts | 72° |
| 2026-04-25 13:06 | 57.15637 | 45.32751 | 32607 ft | 509 kts | 72° |
| 2026-04-25 13:06 | 57.17379 | 45.45321 | 32601 ft | 509 kts | 72° |
| 2026-04-25 13:07 | 57.19120 | 45.57989 | 32600 ft | 510 kts | 72° |
| 2026-04-25 13:07 | 57.20845 | 45.70644 | 32589 ft | 510 kts | 72° |
| 2026-04-25 13:08 | 57.22563 | 45.83359 | 32587 ft | 510 kts | 72° |
| 2026-04-25 13:08 | 57.24255 | 45.95973 | 32584 ft | 510 kts | 72° |
| 2026-04-25 13:09 | 57.25948 | 46.08710 | 32580 ft | 510 kts | 72° |
| 2026-04-25 13:09 | 57.27627 | 46.21446 | 32581 ft | 510 kts | 72° |
| 2026-04-25 13:10 | 57.29292 | 46.34191 | 32577 ft | 510 kts | 73° |
| 2026-04-25 13:10 | 57.30934 | 46.46867 | 32575 ft | 510 kts | 73° |
| 2026-04-25 13:11 | 57.32575 | 46.59638 | 32568 ft | 510 kts | 73° |
| 2026-04-25 13:11 | 57.34206 | 46.72408 | 32570 ft | 509 kts | 72° |
| 2026-04-25 13:12 | 57.36506 | 46.84697 | 32561 ft | 502 kts | 60° |
| 2026-04-25 13:12 | 57.38475 | 46.92432 | 32569 ft | 502 kts | 60° |
| 2026-04-25 13:13 | 57.42335 | 47.08111 | 32535 ft | 502 kts | 61° |
| 2026-04-25 13:13 | 57.45181 | 47.19943 | 32539 ft | 502 kts | 62° |
| 2026-04-25 13:14 | 57.48018 | 47.31785 | 32545 ft | 501 kts | 62° |
| 2026-04-25 13:14 | 57.50825 | 47.43546 | 32543 ft | 501 kts | 62° |
| 2026-04-25 13:15 | 57.53640 | 47.55389 | 32532 ft | 501 kts | 62° |
| 2026-04-25 13:15 | 57.56444 | 47.67245 | 32533 ft | 500 kts | 62° |
| 2026-04-25 13:16 | 57.59241 | 47.79139 | 32531 ft | 500 kts | 62° |
| 2026-04-25 13:16 | 57.62001 | 47.90941 | 32533 ft | 500 kts | 63° |
| 2026-04-25 13:17 | 57.64770 | 48.02849 | 32534 ft | 500 kts | 63° |
| 2026-04-25 13:17 | 57.67533 | 48.14792 | 32529 ft | 500 kts | 63° |
| 2026-04-25 13:18 | 57.70280 | 48.26734 | 32529 ft | 500 kts | 63° |
| 2026-04-25 13:18 | 57.73003 | 48.38638 | 32536 ft | 501 kts | 63° |
| 2026-04-25 13:19 | 57.75731 | 48.50627 | 32535 ft | 501 kts | 63° |
| 2026-04-25 13:19 | 57.77552 | 48.58660 | 32535 ft | 501 kts | 64° |
| 2026-04-25 13:20 | 57.81161 | 48.74666 | 32540 ft | 501 kts | 64° |
| 2026-04-25 13:20 | 57.83848 | 48.86656 | 32533 ft | 502 kts | 64° |
| 2026-04-25 13:21 | 57.86536 | 48.98726 | 32530 ft | 502 kts | 64° |
| 2026-04-25 13:21 | 57.89222 | 49.10852 | 32533 ft | 502 kts | 64° |
| 2026-04-25 13:22 | 57.91891 | 49.22976 | 32521 ft | 502 kts | 65° |
| 2026-04-25 13:23 | 57.95855 | 49.41109 | 32517 ft | 502 kts | 65° |
| 2026-04-25 13:23 | 57.98497 | 49.53284 | 32507 ft | 502 kts | 65° |
| 2026-04-25 13:24 | 58.01129 | 49.65490 | 32511 ft | 502 kts | 65° |
| 2026-04-25 13:24 | 58.03749 | 49.77707 | 32503 ft | 503 kts | 66° |
| 2026-04-25 13:25 | 58.06343 | 49.89876 | 32499 ft | 503 kts | 66° |
| 2026-04-25 13:25 | 58.08947 | 50.02164 | 32495 ft | 504 kts | 66° |
| 2026-04-25 13:26 | 58.11537 | 50.14459 | 32492 ft | 504 kts | 66° |
| 2026-04-25 13:26 | 58.14121 | 50.26798 | 32487 ft | 504 kts | 66° |
| 2026-04-25 13:27 | 58.16677 | 50.39069 | 32486 ft | 504 kts | 67° |
| 2026-04-25 13:27 | 58.19247 | 50.51453 | 32481 ft | 505 kts | 67° |
| 2026-04-25 13:28 | 58.21803 | 50.63836 | 32481 ft | 505 kts | 67° |
| 2026-04-25 13:28 | 58.24347 | 50.76245 | 32476 ft | 505 kts | 67° |
| 2026-04-25 13:29 | 58.26883 | 50.88690 | 32473 ft | 505 kts | 68° |
| 2026-04-25 13:29 | 58.29386 | 51.01052 | 32470 ft | 505 kts | 68° |
| 2026-04-25 13:30 | 58.33146 | 51.19763 | 32472 ft | 505 kts | 68° |
| 2026-04-25 13:31 | 58.36456 | 51.36380 | 32468 ft | 505 kts | 68° |
| 2026-04-25 13:31 | 58.39333 | 51.50933 | 32471 ft | 505 kts | 69° |
| 2026-04-25 13:32 | 58.41797 | 51.63466 | 32465 ft | 505 kts | 69° |
| 2026-04-25 13:32 | 58.44378 | 51.75914 | 32465 ft | 505 kts | 67° |
| 2026-04-25 13:33 | 58.46593 | 51.86210 | 32460 ft | 505 kts | 67° |
| 2026-04-25 13:33 | 58.49224 | 51.98652 | 32460 ft | 505 kts | 68° |
| 2026-04-25 13:34 | 58.52245 | 52.13147 | 32442 ft | 505 kts | 68° |
| 2026-04-25 13:34 | 58.54400 | 52.23540 | 32461 ft | 505 kts | 68° |
| 2026-04-25 13:35 | 58.56979 | 52.36045 | 32448 ft | 505 kts | 68° |
| 2026-04-25 13:35 | 58.59548 | 52.48581 | 32467 ft | 505 kts | 68° |
| 2026-04-25 13:36 | 58.62108 | 52.61150 | 32465 ft | 506 kts | 69° |
| 2026-04-25 13:36 | 58.64638 | 52.73638 | 32467 ft | 506 kts | 69° |
| 2026-04-25 13:37 | 58.67176 | 52.86236 | 32468 ft | 506 kts | 69° |
| 2026-04-25 13:37 | 58.69709 | 52.98859 | 32457 ft | 506 kts | 69° |
| 2026-04-25 13:38 | 58.72228 | 53.11498 | 32471 ft | 506 kts | 69° |
| 2026-04-25 13:38 | 58.74733 | 53.24149 | 32470 ft | 506 kts | 69° |
| 2026-04-25 13:39 | 58.77212 | 53.36745 | 32475 ft | 506 kts | 69° |
| 2026-04-25 13:39 | 58.79692 | 53.49435 | 32473 ft | 506 kts | 70° |
| 2026-04-25 13:40 | 58.82161 | 53.62145 | 32459 ft | 506 kts | 70° |
| 2026-04-25 13:40 | 58.84620 | 53.74880 | 32478 ft | 506 kts | 70° |
| 2026-04-25 13:41 | 58.87049 | 53.87655 | 32467 ft | 506 kts | 71° |
| 2026-04-25 13:41 | 58.89168 | 54.00523 | 32479 ft | 506 kts | 73° |
| 2026-04-25 13:42 | 58.91215 | 54.13538 | 32481 ft | 506 kts | 73° |
| 2026-04-25 13:42 | 58.93297 | 54.26545 | 32463 ft | 506 kts | 73° |
| 2026-04-25 13:43 | 58.95391 | 54.39555 | 32478 ft | 506 kts | 73° |
| 2026-04-25 13:43 | 58.97460 | 54.52502 | 32481 ft | 506 kts | 73° |
| 2026-04-25 13:44 | 58.99530 | 54.65559 | 32461 ft | 506 kts | 73° |
| 2026-04-25 13:44 | 59.01581 | 54.78608 | 32477 ft | 506 kts | 74° |
| 2026-04-25 13:45 | 59.03609 | 54.91590 | 32474 ft | 506 kts | 74° |
| 2026-04-25 13:45 | 59.05640 | 55.04672 | 32478 ft | 506 kts | 74° |
| 2026-04-25 13:46 | 59.07655 | 55.17759 | 32478 ft | 506 kts | 74° |
| 2026-04-25 13:46 | 59.09663 | 55.30873 | 32481 ft | 506 kts | 75° |
| 2026-04-25 13:47 | 59.11649 | 55.43936 | 32483 ft | 506 kts | 75° |
| 2026-04-25 13:47 | 59.13630 | 55.57063 | 32485 ft | 506 kts | 75° |
| 2026-04-25 13:48 | 59.15601 | 55.70232 | 32489 ft | 506 kts | 75° |
| 2026-04-25 13:48 | 59.17560 | 55.83412 | 32492 ft | 506 kts | 75° |
| 2026-04-25 13:49 | 59.19510 | 55.96626 | 32494 ft | 507 kts | 75° |
| 2026-04-25 13:49 | 59.21432 | 56.09756 | 32495 ft | 507 kts | 76° |
| 2026-04-25 13:50 | 59.23357 | 56.23011 | 32497 ft | 507 kts | 76° |
| 2026-04-25 13:50 | 59.25264 | 56.36251 | 32503 ft | 507 kts | 76° |
| 2026-04-25 13:51 | 59.27164 | 56.49551 | 32506 ft | 507 kts | 76° |
| 2026-04-25 13:51 | 59.29034 | 56.62750 | 32510 ft | 507 kts | 76° |
| 2026-04-25 13:52 | 59.30903 | 56.76052 | 32513 ft | 507 kts | 76° |
| 2026-04-25 13:52 | 59.32761 | 56.89386 | 32517 ft | 508 kts | 77° |
| 2026-04-25 13:53 | 59.34607 | 57.02736 | 32518 ft | 508 kts | 77° |
| 2026-04-25 13:53 | 59.36411 | 57.16111 | 32525 ft | 507 kts | 78° |
| 2026-04-25 13:54 | 59.38028 | 57.29479 | 32532 ft | 507 kts | 79° |
| 2026-04-25 13:54 | 59.39619 | 57.42964 | 32533 ft | 508 kts | 79° |
| 2026-04-25 13:55 | 59.41223 | 57.56472 | 32535 ft | 508 kts | 79° |
| 2026-04-25 13:55 | 59.42825 | 57.69980 | 32534 ft | 508 kts | 79° |
| 2026-04-25 13:56 | 59.44402 | 57.83423 | 32544 ft | 508 kts | 79° |
| 2026-04-25 13:56 | 59.45975 | 57.96958 | 32543 ft | 508 kts | 80° |
| 2026-04-25 13:57 | 59.47533 | 58.10524 | 32545 ft | 509 kts | 80° |
| 2026-04-25 13:57 | 59.49078 | 58.24103 | 32546 ft | 509 kts | 80° |
| 2026-04-25 13:58 | 59.50599 | 58.37600 | 32556 ft | 508 kts | 81° |
| 2026-04-25 13:58 | 59.52114 | 58.51187 | 32562 ft | 508 kts | 81° |
| 2026-04-25 13:59 | 59.53618 | 58.64803 | 32560 ft | 508 kts | 81° |
| 2026-04-25 13:59 | 59.55103 | 58.78391 | 32553 ft | 508 kts | 81° |
| 2026-04-25 14:00 | 59.56567 | 58.91925 | 32570 ft | 507 kts | 81° |
| 2026-04-25 14:00 | 59.58026 | 59.05539 | 32565 ft | 507 kts | 82° |
| 2026-04-25 14:01 | 59.59476 | 59.19159 | 32569 ft | 507 kts | 82° |
| 2026-04-25 14:01 | 59.60927 | 59.32802 | 32568 ft | 508 kts | 82° |
| 2026-04-25 14:02 | 59.62355 | 59.46355 | 32560 ft | 508 kts | 82° |
| 2026-04-25 14:02 | 59.63777 | 59.60020 | 32568 ft | 508 kts | 82° |
| 2026-04-25 14:03 | 59.65184 | 59.73703 | 32580 ft | 508 kts | 82° |
| 2026-04-25 14:03 | 59.66579 | 59.87405 | 32569 ft | 509 kts | 83° |
| 2026-04-25 14:04 | 59.67961 | 60.01143 | 32570 ft | 509 kts | 83° |
| 2026-04-25 14:04 | 59.69322 | 60.14826 | 32585 ft | 510 kts | 83° |
| 2026-04-25 14:05 | 59.70678 | 60.28603 | 32572 ft | 510 kts | 83° |
| 2026-04-25 14:05 | 59.72022 | 60.42419 | 32575 ft | 511 kts | 83° |
| 2026-04-25 14:06 | 59.73351 | 60.56243 | 32579 ft | 511 kts | 83° |
| 2026-04-25 14:06 | 59.74657 | 60.69994 | 32576 ft | 511 kts | 84° |
| 2026-04-25 14:07 | 59.75957 | 60.83843 | 32582 ft | 511 kts | 84° |
| 2026-04-25 14:07 | 59.77244 | 60.97709 | 32583 ft | 511 kts | 84° |
| 2026-04-25 14:08 | 59.78515 | 61.11580 | 32581 ft | 511 kts | 84° |
| 2026-04-25 14:08 | 59.79764 | 61.25384 | 32583 ft | 511 kts | 84° |
| 2026-04-25 14:09 | 59.81007 | 61.39284 | 32588 ft | 511 kts | 84° |
| 2026-04-25 14:09 | 59.82235 | 61.53203 | 32584 ft | 512 kts | 84° |
| 2026-04-25 14:10 | 59.83450 | 61.67143 | 32588 ft | 512 kts | 85° |
| 2026-04-25 14:10 | 59.84651 | 61.81090 | 32587 ft | 512 kts | 85° |
| 2026-04-25 14:11 | 59.85829 | 61.94972 | 32587 ft | 512 kts | 85° |
| 2026-04-25 14:11 | 59.87000 | 62.08952 | 32594 ft | 512 kts | 85° |
| 2026-04-25 14:12 | 59.88158 | 62.22953 | 32587 ft | 513 kts | 85° |
| 2026-04-25 14:12 | 59.89303 | 62.36953 | 32588 ft | 513 kts | 85° |
| 2026-04-25 14:13 | 59.90431 | 62.50888 | 32590 ft | 513 kts | 85° |
| 2026-04-25 14:13 | 59.91563 | 62.64918 | 32594 ft | 513 kts | 86° |
| 2026-04-25 14:14 | 59.92683 | 62.78982 | 32596 ft | 513 kts | 86° |
| 2026-04-25 14:14 | 59.93786 | 62.93044 | 32599 ft | 514 kts | 86° |
| 2026-04-25 14:15 | 59.94868 | 63.07040 | 32599 ft | 514 kts | 86° |
| 2026-04-25 14:15 | 59.95940 | 63.21152 | 32603 ft | 515 kts | 86° |
| 2026-04-25 14:16 | 59.96998 | 63.35278 | 32601 ft | 515 kts | 87° |
| 2026-04-25 14:16 | 59.98043 | 63.49427 | 32605 ft | 515 kts | 87° |
| 2026-04-25 14:17 | 59.99075 | 63.63606 | 32603 ft | 516 kts | 87° |
| 2026-04-25 14:17 | 60.00085 | 63.77698 | 32604 ft | 516 kts | 87° |
| 2026-04-25 14:18 | 60.01089 | 63.91901 | 32606 ft | 516 kts | 87° |
| 2026-04-25 14:18 | 60.02451 | 64.06047 | 32601 ft | 521 kts | 81° |
| 2026-04-25 14:19 | 60.04236 | 64.20104 | 32606 ft | 522 kts | 81° |
| 2026-04-25 14:19 | 60.05971 | 64.34107 | 32608 ft | 522 kts | 82° |
| 2026-04-25 14:20 | 60.07642 | 64.48215 | 32614 ft | 522 kts | 82° |
| 2026-04-25 14:20 | 60.09294 | 64.62394 | 32619 ft | 523 kts | 82° |
| 2026-04-25 14:21 | 60.10943 | 64.76581 | 32620 ft | 523 kts | 81° |
| 2026-04-25 14:21 | 60.13247 | 64.90426 | 32609 ft | 532 kts | 69° |
| 2026-04-25 14:22 | 60.16475 | 65.03820 | 32618 ft | 533 kts | 68° |
| 2026-04-25 14:22 | 60.19668 | 65.17254 | 32623 ft | 533 kts | 69° |
| 2026-04-25 14:23 | 60.22808 | 65.30755 | 32625 ft | 533 kts | 69° |
| 2026-04-25 14:23 | 60.25900 | 65.44215 | 32627 ft | 533 kts | 69° |
| 2026-04-25 14:24 | 60.28999 | 65.57782 | 32632 ft | 533 kts | 69° |
| 2026-04-25 14:24 | 60.32093 | 65.71398 | 32636 ft | 534 kts | 70° |
| 2026-04-25 14:25 | 60.35169 | 65.85018 | 32633 ft | 534 kts | 70° |
| 2026-04-25 14:25 | 60.38216 | 65.98594 | 32638 ft | 534 kts | 70° |
| 2026-04-25 14:26 | 60.41268 | 66.12284 | 32641 ft | 534 kts | 70° |
| 2026-04-25 14:26 | 60.44311 | 66.26023 | 32643 ft | 534 kts | 70° |
| 2026-04-25 14:27 | 60.47339 | 66.39778 | 32640 ft | 535 kts | 70° |
| 2026-04-25 14:27 | 60.50333 | 66.53476 | 32644 ft | 535 kts | 70° |
| 2026-04-25 14:28 | 60.53332 | 66.67285 | 32640 ft | 535 kts | 70° |
| 2026-04-25 14:28 | 60.56319 | 66.81124 | 32644 ft | 535 kts | 70° |
| 2026-04-25 14:29 | 60.59294 | 66.95007 | 32649 ft | 535 kts | 70° |
| 2026-04-25 14:29 | 60.62235 | 67.08820 | 32649 ft | 535 kts | 71° |
| 2026-04-25 14:30 | 60.65181 | 67.22753 | 32652 ft | 535 kts | 71° |
| 2026-04-25 14:30 | 60.69573 | 67.43694 | 32655 ft | 536 kts | 71° |
| 2026-04-25 14:31 | 60.72466 | 67.57608 | 32654 ft | 535 kts | 71° |
| 2026-04-25 14:31 | 60.75330 | 67.71646 | 32655 ft | 535 kts | 71° |
| 2026-04-25 14:32 | 60.78175 | 67.85735 | 32658 ft | 536 kts | 71° |
| 2026-04-25 14:32 | 60.81011 | 67.99844 | 32660 ft | 536 kts | 72° |
| 2026-04-25 14:33 | 60.83817 | 68.13887 | 32662 ft | 536 kts | 72° |
| 2026-04-25 14:33 | 60.86631 | 68.28058 | 32662 ft | 536 kts | 72° |
| 2026-04-25 14:34 | 60.89458 | 68.42235 | 32662 ft | 537 kts | 71° |
| 2026-04-25 14:34 | 60.92293 | 68.56429 | 32673 ft | 537 kts | 72° |
| 2026-04-25 14:35 | 60.95089 | 68.70558 | 32681 ft | 537 kts | 72° |
| 2026-04-25 14:35 | 60.97885 | 68.84809 | 32686 ft | 537 kts | 72° |
| 2026-04-25 14:36 | 61.00675 | 68.99129 | 32772 ft | 541 kts | 72° |
| 2026-04-25 14:36 | 61.02067 | 69.06310 | 33143 ft | 540 kts | 72° |
| 2026-04-25 14:36 | 61.03383 | 69.13541 | 33607 ft | 535 kts | 76° |
| 2026-04-25 14:37 | 61.04349 | 69.20870 | 33946 ft | 529 kts | 82° |
| 2026-04-25 14:37 | 61.05120 | 69.28218 | 34219 ft | 528 kts | 82° |
| 2026-04-25 14:37 | 61.05889 | 69.35628 | 34468 ft | 528 kts | 82° |
| 2026-04-25 14:37 | 61.06669 | 69.43028 | 34598 ft | 530 kts | 82° |
| 2026-04-25 14:38 | 61.08275 | 69.57920 | 34663 ft | 530 kts | 82° |
| 2026-04-25 14:38 | 61.09884 | 69.72741 | 34672 ft | 527 kts | 82° |
| 2026-04-25 14:39 | 61.11454 | 69.87424 | 34686 ft | 526 kts | 82° |
| 2026-04-25 14:39 | 61.13013 | 70.02172 | 34692 ft | 525 kts | 82° |
| 2026-04-25 14:40 | 61.14507 | 70.16969 | 34702 ft | 525 kts | 83° |
| 2026-04-25 14:40 | 61.15933 | 70.31802 | 34709 ft | 526 kts | 83° |
| 2026-04-25 14:41 | 61.17345 | 70.46582 | 34715 ft | 527 kts | 83° |
| 2026-04-25 14:41 | 61.18766 | 70.61519 | 34723 ft | 528 kts | 83° |
| 2026-04-25 14:42 | 61.19936 | 70.73948 | 34724 ft | 529 kts | 83° |
| 2026-04-25 14:42 | 61.21558 | 70.91381 | 34732 ft | 530 kts | 83° |
| 2026-04-25 14:43 | 61.22904 | 71.06390 | 34736 ft | 530 kts | 84° |
| 2026-04-25 14:43 | 61.24206 | 71.21444 | 34737 ft | 530 kts | 84° |
| 2026-04-25 14:44 | 61.25494 | 71.36514 | 34731 ft | 529 kts | 84° |
| 2026-04-25 14:44 | 61.26759 | 71.51445 | 34729 ft | 529 kts | 84° |
| 2026-04-25 14:45 | 61.28023 | 71.66541 | 34731 ft | 529 kts | 84° |
| 2026-04-25 14:45 | 61.29268 | 71.81634 | 34730 ft | 529 kts | 84° |
| 2026-04-25 14:46 | 61.30496 | 71.96729 | 34732 ft | 529 kts | 84° |
| 2026-04-25 14:46 | 61.31710 | 72.11742 | 34730 ft | 530 kts | 84° |
| 2026-04-25 14:47 | 61.32865 | 72.24295 | 34729 ft | 531 kts | 82° |
| 2026-04-25 14:47 | 61.34553 | 72.41942 | 34735 ft | 532 kts | 83° |
| 2026-04-25 14:48 | 61.35946 | 72.57103 | 34723 ft | 533 kts | 83° |
| 2026-04-25 14:48 | 61.37299 | 72.72180 | 34737 ft | 533 kts | 83° |
| 2026-04-25 14:49 | 61.38648 | 72.87381 | 34727 ft | 533 kts | 83° |
| 2026-04-25 14:49 | 61.39983 | 73.02611 | 34720 ft | 534 kts | 83° |
| 2026-04-25 14:50 | 61.41302 | 73.17854 | 34718 ft | 534 kts | 83° |
| 2026-04-25 14:50 | 61.42596 | 73.33003 | 34717 ft | 533 kts | 83° |
| 2026-04-25 14:51 | 61.43882 | 73.48279 | 34721 ft | 533 kts | 83° |
| 2026-04-25 14:51 | 61.45149 | 73.63547 | 34726 ft | 533 kts | 83° |
| 2026-04-25 14:52 | 61.46399 | 73.78828 | 34731 ft | 533 kts | 83° |
| 2026-04-25 14:52 | 61.47425 | 73.91540 | 34737 ft | 533 kts | 84° |
| 2026-04-25 14:53 | 61.48839 | 74.09322 | 34748 ft | 533 kts | 84° |
| 2026-04-25 14:53 | 61.50041 | 74.24643 | 34752 ft | 533 kts | 84° |
| 2026-04-25 14:54 | 61.51092 | 74.39982 | 34753 ft | 532 kts | 86° |
| 2026-04-25 14:54 | 61.52003 | 74.55242 | 34754 ft | 531 kts | 86° |
| 2026-04-25 14:55 | 61.52911 | 74.70593 | 34763 ft | 531 kts | 86° |
| 2026-04-25 14:55 | 61.53828 | 74.85955 | 34765 ft | 531 kts | 86° |
| 2026-04-25 14:56 | 61.54737 | 75.01332 | 34769 ft | 531 kts | 86° |
| 2026-04-25 14:56 | 61.55623 | 75.16606 | 34762 ft | 531 kts | 86° |
| 2026-04-25 14:57 | 61.56495 | 75.31983 | 34769 ft | 531 kts | 86° |
| 2026-04-25 14:57 | 61.57348 | 75.47369 | 34764 ft | 531 kts | 86° |
| 2026-04-25 14:58 | 61.58185 | 75.62763 | 34776 ft | 531 kts | 86° |
| 2026-04-25 14:58 | 61.58998 | 75.78059 | 34774 ft | 531 kts | 86° |
| 2026-04-25 14:59 | 61.59800 | 75.93461 | 34776 ft | 531 kts | 86° |
| 2026-04-25 14:59 | 61.60584 | 76.08876 | 34780 ft | 530 kts | 86° |
| 2026-04-25 15:00 | 61.61351 | 76.24288 | 34779 ft | 530 kts | 86° |
| 2026-04-25 15:00 | 61.62096 | 76.39612 | 34783 ft | 530 kts | 86° |
| 2026-04-25 15:01 | 61.62828 | 76.55034 | 34787 ft | 530 kts | 86° |
| 2026-04-25 15:01 | 61.63542 | 76.70453 | 34789 ft | 530 kts | 86° |
| 2026-04-25 15:02 | 61.64239 | 76.85892 | 34794 ft | 530 kts | 87° |
| 2026-04-25 15:02 | 61.64915 | 77.01233 | 34805 ft | 530 kts | 87° |
| 2026-04-25 15:03 | 61.65578 | 77.16694 | 34812 ft | 531 kts | 87° |
| 2026-04-25 15:03 | 61.66225 | 77.32162 | 34818 ft | 531 kts | 87° |
| 2026-04-25 15:04 | 61.66852 | 77.47624 | 34827 ft | 530 kts | 87° |
| 2026-04-25 15:04 | 61.67404 | 77.63120 | 34834 ft | 530 kts | 88° |
| 2026-04-25 15:05 | 61.67931 | 77.78498 | 34843 ft | 530 kts | 88° |
| 2026-04-25 15:06 | 61.68735 | 78.01699 | 34849 ft | 530 kts | 87° |
| 2026-04-25 15:06 | 61.69268 | 78.17182 | 34863 ft | 529 kts | 88° |
| 2026-04-25 15:07 | 61.69778 | 78.32541 | 34868 ft | 529 kts | 88° |
| 2026-04-25 15:07 | 61.70271 | 78.48024 | 34868 ft | 529 kts | 88° |
| 2026-04-25 15:08 | 61.70745 | 78.63502 | 34881 ft | 529 kts | 88° |
| 2026-04-25 15:08 | 61.71202 | 78.78976 | 34889 ft | 529 kts | 88° |
| 2026-04-25 15:09 | 61.71641 | 78.94451 | 34898 ft | 529 kts | 88° |
| 2026-04-25 15:09 | 61.72265 | 79.17564 | 34907 ft | 529 kts | 88° |
| 2026-04-25 15:10 | 61.72661 | 79.33067 | 34909 ft | 529 kts | 88° |
| 2026-04-25 15:11 | 61.73222 | 79.56294 | 34915 ft | 529 kts | 88° |
| 2026-04-25 15:11 | 61.73572 | 79.71687 | 34920 ft | 528 kts | 88° |
| 2026-04-25 15:12 | 61.74067 | 79.94921 | 34922 ft | 528 kts | 89° |
| 2026-04-25 15:12 | 61.74275 | 80.05279 | 34925 ft | 528 kts | 89° |
| 2026-04-25 15:13 | 61.74803 | 80.33529 | 34935 ft | 528 kts | 89° |
| 2026-04-25 15:14 | 61.75068 | 80.49029 | 34936 ft | 528 kts | 89° |
| 2026-04-25 15:14 | 61.75315 | 80.64524 | 34944 ft | 528 kts | 89° |
| 2026-04-25 15:15 | 61.75545 | 80.80009 | 34945 ft | 528 kts | 89° |
| 2026-04-25 15:15 | 61.75756 | 80.95411 | 34947 ft | 528 kts | 89° |
| 2026-04-25 15:16 | 61.75951 | 81.10920 | 34949 ft | 528 kts | 89° |
| 2026-04-25 15:16 | 61.76211 | 81.34184 | 34958 ft | 528 kts | 89° |
| 2026-04-25 15:17 | 61.76431 | 81.57442 | 34965 ft | 528 kts | 89° |
| 2026-04-25 15:18 | 61.76556 | 81.72845 | 34966 ft | 528 kts | 89° |
| 2026-04-25 15:18 | 61.76710 | 81.96099 | 34970 ft | 528 kts | 90° |
| 2026-04-25 15:19 | 61.76766 | 82.06355 | 34979 ft | 528 kts | 90° |
| 2026-04-25 15:19 | 61.76855 | 82.26993 | 34986 ft | 528 kts | 90° |
| 2026-04-25 15:20 | 61.76902 | 82.42510 | 34989 ft | 528 kts | 90° |
| 2026-04-25 15:20 | 61.76932 | 82.58015 | 34988 ft | 528 kts | 90° |
| 2026-04-25 15:21 | 61.76946 | 82.73504 | 34998 ft | 528 kts | 90° |
| 2026-04-25 15:21 | 61.76940 | 82.89013 | 34991 ft | 528 kts | 90° |
| 2026-04-25 15:22 | 61.76915 | 83.04507 | 35004 ft | 528 kts | 90° |
| 2026-04-25 15:22 | 61.76875 | 83.19904 | 35003 ft | 528 kts | 90° |
| 2026-04-25 15:23 | 61.76818 | 83.35395 | 35008 ft | 528 kts | 90° |
| 2026-04-25 15:23 | 61.76746 | 83.50873 | 35010 ft | 527 kts | 90° |
| 2026-04-25 15:24 | 61.76672 | 83.66278 | 35019 ft | 527 kts | 90° |
| 2026-04-25 15:24 | 61.76622 | 83.79238 | 35019 ft | 527 kts | 90° |
| 2026-04-25 15:25 | 61.76540 | 83.97230 | 35027 ft | 527 kts | 90° |
| 2026-04-25 15:25 | 61.76445 | 84.12724 | 35024 ft | 527 kts | 91° |
| 2026-04-25 15:26 | 61.76330 | 84.28185 | 35035 ft | 527 kts | 91° |
| 2026-04-25 15:26 | 61.76198 | 84.43582 | 35039 ft | 527 kts | 91° |
| 2026-04-25 15:27 | 61.76048 | 84.59071 | 35043 ft | 528 kts | 91° |
| 2026-04-25 15:28 | 61.75790 | 84.82297 | 35041 ft | 528 kts | 91° |
| 2026-04-25 15:28 | 61.75598 | 84.97716 | 35045 ft | 529 kts | 91° |
| 2026-04-25 15:29 | 61.75387 | 85.13231 | 35054 ft | 529 kts | 91° |
| 2026-04-25 15:29 | 61.75158 | 85.28761 | 35055 ft | 529 kts | 91° |
| 2026-04-25 15:30 | 61.74911 | 85.44286 | 35058 ft | 530 kts | 91° |
| 2026-04-25 15:30 | 61.74648 | 85.59736 | 35060 ft | 530 kts | 91° |
| 2026-04-25 15:31 | 61.74366 | 85.75273 | 35065 ft | 530 kts | 92° |
| 2026-04-25 15:31 | 61.74066 | 85.90835 | 35068 ft | 530 kts | 92° |
| 2026-04-25 15:32 | 61.73749 | 86.06382 | 35069 ft | 531 kts | 92° |
| 2026-04-25 15:32 | 61.73416 | 86.21824 | 35075 ft | 531 kts | 92° |
| 2026-04-25 15:33 | 61.72880 | 86.45172 | 35077 ft | 531 kts | 92° |
| 2026-04-25 15:33 | 61.72501 | 86.60729 | 35078 ft | 531 kts | 92° |
| 2026-04-25 15:34 | 61.72104 | 86.76285 | 35074 ft | 532 kts | 92° |
| 2026-04-25 15:34 | 61.71831 | 86.86600 | 35086 ft | 532 kts | 92° |
| 2026-04-25 15:35 | 61.71036 | 87.15105 | 35092 ft | 532 kts | 92° |
| 2026-04-25 15:36 | 61.70340 | 87.38496 | 35093 ft | 533 kts | 92° |
| 2026-04-25 15:36 | 61.69859 | 87.53973 | 35102 ft | 533 kts | 92° |
| 2026-04-25 15:37 | 61.69353 | 87.69537 | 35099 ft | 533 kts | 92° |
| 2026-04-25 15:37 | 61.68825 | 87.85135 | 35103 ft | 533 kts | 93° |
| 2026-04-25 15:38 | 61.68283 | 88.00685 | 35105 ft | 533 kts | 93° |
| 2026-04-25 15:38 | 61.67727 | 88.16147 | 35110 ft | 533 kts | 93° |
| 2026-04-25 15:39 | 61.67150 | 88.31722 | 35109 ft | 533 kts | 93° |
| 2026-04-25 15:39 | 61.66558 | 88.47245 | 35112 ft | 532 kts | 93° |
| 2026-04-25 15:40 | 61.66150 | 88.57646 | 35117 ft | 532 kts | 93° |
| 2026-04-25 15:40 | 61.65318 | 88.78294 | 35117 ft | 532 kts | 93° |
| 2026-04-25 15:41 | 61.64679 | 88.93693 | 35124 ft | 531 kts | 93° |
| 2026-04-25 15:41 | 61.64021 | 89.09159 | 35122 ft | 531 kts | 93° |
| 2026-04-25 15:42 | 61.63367 | 89.24618 | 35128 ft | 531 kts | 93° |
| 2026-04-25 15:42 | 61.62704 | 89.40070 | 35128 ft | 530 kts | 93° |
| 2026-04-25 15:43 | 61.62027 | 89.55380 | 35128 ft | 530 kts | 93° |
| 2026-04-25 15:43 | 61.61327 | 89.70772 | 35133 ft | 529 kts | 93° |
| 2026-04-25 15:44 | 61.60610 | 89.86160 | 35137 ft | 528 kts | 93° |
| 2026-04-25 15:44 | 61.59879 | 90.01506 | 35133 ft | 527 kts | 93° |
| 2026-04-25 15:45 | 61.59082 | 90.16707 | 35140 ft | 527 kts | 94° |
| 2026-04-25 15:45 | 61.58507 | 90.26919 | 35137 ft | 527 kts | 94° |
| 2026-04-25 15:46 | 61.57346 | 90.47214 | 35135 ft | 526 kts | 94° |
| 2026-04-25 15:46 | 61.56468 | 90.62434 | 35135 ft | 525 kts | 94° |
| 2026-04-25 15:47 | 61.55577 | 90.77619 | 35147 ft | 525 kts | 94° |
| 2026-04-25 15:47 | 61.54677 | 90.92696 | 35153 ft | 524 kts | 94° |
| 2026-04-25 15:48 | 61.53752 | 91.07866 | 35154 ft | 524 kts | 94° |
| 2026-04-25 15:48 | 61.52810 | 91.23033 | 35157 ft | 524 kts | 95° |
| 2026-04-25 15:49 | 61.51853 | 91.38160 | 35156 ft | 524 kts | 95° |
| 2026-04-25 15:49 | 61.50884 | 91.53186 | 35159 ft | 523 kts | 95° |
| 2026-04-25 15:50 | 61.49895 | 91.68272 | 35169 ft | 523 kts | 95° |
| 2026-04-25 15:50 | 61.48889 | 91.83356 | 35166 ft | 523 kts | 95° |
| 2026-04-25 15:51 | 61.48215 | 91.93320 | 35162 ft | 522 kts | 95° |
| 2026-04-25 15:51 | 61.46840 | 92.13311 | 35174 ft | 521 kts | 95° |
| 2026-04-25 15:52 | 61.45788 | 92.28322 | 35176 ft | 521 kts | 95° |
| 2026-04-25 15:52 | 61.44720 | 92.43297 | 35173 ft | 521 kts | 95° |
| 2026-04-25 15:53 | 61.43637 | 92.58257 | 35180 ft | 520 kts | 95° |
| 2026-04-25 15:53 | 61.42545 | 92.73097 | 35185 ft | 520 kts | 95° |
| 2026-04-25 15:54 | 61.41431 | 92.88027 | 35182 ft | 520 kts | 95° |
| 2026-04-25 15:54 | 61.40299 | 93.02936 | 35187 ft | 520 kts | 95° |
| 2026-04-25 15:55 | 61.39151 | 93.17835 | 35195 ft | 520 kts | 95° |
| 2026-04-25 15:55 | 61.37997 | 93.32620 | 35198 ft | 520 kts | 96° |
| 2026-04-25 15:56 | 61.36817 | 93.47496 | 35204 ft | 520 kts | 96° |
| 2026-04-25 15:56 | 61.35621 | 93.62355 | 35200 ft | 519 kts | 96° |
| 2026-04-25 15:57 | 61.34414 | 93.77144 | 35209 ft | 519 kts | 96° |
| 2026-04-25 15:57 | 61.33195 | 93.91874 | 35205 ft | 518 kts | 96° |
| 2026-04-25 15:58 | 61.31956 | 94.06639 | 35212 ft | 517 kts | 96° |
| 2026-04-25 15:58 | 61.30703 | 94.21373 | 35210 ft | 517 kts | 96° |
| 2026-04-25 15:59 | 61.29434 | 94.36096 | 35215 ft | 517 kts | 96° |
| 2026-04-25 15:59 | 61.28151 | 94.50794 | 35219 ft | 516 kts | 97° |
| 2026-04-25 16:00 | 61.27292 | 94.60513 | 35207 ft | 516 kts | 97° |
| 2026-04-25 16:00 | 61.25546 | 94.80029 | 35208 ft | 516 kts | 97° |
| 2026-04-25 16:01 | 61.24217 | 94.94669 | 35211 ft | 516 kts | 97° |
| 2026-04-25 16:01 | 61.22874 | 95.09283 | 35214 ft | 516 kts | 97° |
| 2026-04-25 16:02 | 61.21523 | 95.23809 | 35230 ft | 517 kts | 97° |
| 2026-04-25 16:02 | 61.20141 | 95.38453 | 35231 ft | 517 kts | 97° |
| 2026-04-25 16:03 | 61.18743 | 95.53094 | 35228 ft | 518 kts | 97° |
| 2026-04-25 16:03 | 61.17330 | 95.67727 | 35232 ft | 518 kts | 98° |
| 2026-04-25 16:04 | 61.15903 | 95.82326 | 35228 ft | 517 kts | 98° |
| 2026-04-25 16:04 | 61.14472 | 95.96795 | 35225 ft | 516 kts | 98° |
| 2026-04-25 16:05 | 61.13021 | 96.11304 | 35227 ft | 514 kts | 98° |
| 2026-04-25 16:06 | 61.10820 | 96.32997 | 35235 ft | 513 kts | 98° |
| 2026-04-25 16:06 | 61.09349 | 96.47314 | 35238 ft | 512 kts | 98° |
| 2026-04-25 16:07 | 61.07881 | 96.61708 | 35242 ft | 512 kts | 98° |
| 2026-04-25 16:07 | 61.06417 | 96.76075 | 35242 ft | 511 kts | 98° |
| 2026-04-25 16:08 | 61.04938 | 96.90425 | 35248 ft | 511 kts | 99° |
| 2026-04-25 16:08 | 61.03439 | 97.04766 | 35253 ft | 511 kts | 99° |
| 2026-04-25 16:09 | 61.01938 | 97.18972 | 35252 ft | 510 kts | 99° |
| 2026-04-25 16:09 | 61.00411 | 97.33251 | 35251 ft | 510 kts | 99° |
| 2026-04-25 16:10 | 60.98870 | 97.47512 | 35255 ft | 510 kts | 99° |
| 2026-04-25 16:10 | 60.97314 | 97.61749 | 35248 ft | 510 kts | 100° |
| 2026-04-25 16:11 | 60.95755 | 97.75882 | 35259 ft | 509 kts | 100° |
| 2026-04-25 16:11 | 60.94173 | 97.90070 | 35258 ft | 509 kts | 100° |
| 2026-04-25 16:12 | 60.92575 | 98.04246 | 35257 ft | 508 kts | 100° |
| 2026-04-25 16:12 | 60.90964 | 98.18391 | 35255 ft | 508 kts | 101° |
| 2026-04-25 16:13 | 60.89341 | 98.32501 | 35262 ft | 507 kts | 101° |
| 2026-04-25 16:13 | 60.87717 | 98.46479 | 35252 ft | 506 kts | 101° |
| 2026-04-25 16:14 | 60.86070 | 98.60517 | 35255 ft | 505 kts | 101° |
| 2026-04-25 16:14 | 60.84411 | 98.74512 | 35253 ft | 505 kts | 101° |
| 2026-04-25 16:15 | 60.82741 | 98.88478 | 35257 ft | 504 kts | 101° |
| 2026-04-25 16:15 | 60.81056 | 99.02423 | 35252 ft | 504 kts | 102° |
| 2026-04-25 16:16 | 60.79369 | 99.16250 | 35254 ft | 503 kts | 102° |
| 2026-04-25 16:16 | 60.77658 | 99.30139 | 35255 ft | 503 kts | 102° |
| 2026-04-25 16:17 | 60.75935 | 99.44005 | 35259 ft | 503 kts | 102° |
| 2026-04-25 16:17 | 60.74209 | 99.57763 | 35255 ft | 503 kts | 102° |
| 2026-04-25 16:18 | 60.72459 | 99.71579 | 35259 ft | 502 kts | 102° |
| 2026-04-25 16:18 | 60.70694 | 99.85392 | 35255 ft | 502 kts | 102° |
| 2026-04-25 16:19 | 60.68917 | 99.99169 | 35261 ft | 502 kts | 103° |
| 2026-04-25 16:19 | 60.67126 | 100.12936 | 35259 ft | 502 kts | 103° |
| 2026-04-25 16:20 | 60.64428 | 100.33433 | 35258 ft | 501 kts | 103° |
| 2026-04-25 16:21 | 60.61688 | 100.53984 | 35261 ft | 501 kts | 103° |
| 2026-04-25 16:21 | 60.59858 | 100.67553 | 35255 ft | 500 kts | 103° |
| 2026-04-25 16:22 | 60.58004 | 100.81192 | 35263 ft | 500 kts | 104° |
| 2026-04-25 16:22 | 60.56136 | 100.94807 | 35262 ft | 500 kts | 104° |
| 2026-04-25 16:23 | 60.54256 | 101.08395 | 35261 ft | 499 kts | 104° |
| 2026-04-25 16:23 | 60.52376 | 101.21871 | 35265 ft | 499 kts | 104° |
| 2026-04-25 16:24 | 60.50471 | 101.35412 | 35257 ft | 499 kts | 104° |
| 2026-04-25 16:24 | 60.48554 | 101.48930 | 35258 ft | 499 kts | 104° |
| 2026-04-25 16:25 | 60.46624 | 101.62423 | 35263 ft | 498 kts | 104° |
| 2026-04-25 16:25 | 60.44680 | 101.75908 | 35254 ft | 498 kts | 105° |
| 2026-04-25 16:26 | 60.42739 | 101.89254 | 35254 ft | 498 kts | 105° |
| 2026-04-25 16:26 | 60.40772 | 102.02683 | 35253 ft | 498 kts | 105° |
| 2026-04-25 16:27 | 60.38793 | 102.16087 | 35254 ft | 497 kts | 105° |
| 2026-04-25 16:27 | 60.36800 | 102.29484 | 35257 ft | 497 kts | 105° |
| 2026-04-25 16:28 | 60.34868 | 102.42777 | 35258 ft | 497 kts | 104° |
| 2026-04-25 16:28 | 60.32957 | 102.56179 | 35252 ft | 497 kts | 105° |
| 2026-04-25 16:29 | 60.31027 | 102.69544 | 35256 ft | 496 kts | 105° |
| 2026-04-25 16:29 | 60.29087 | 102.82817 | 35254 ft | 496 kts | 105° |
| 2026-04-25 16:30 | 60.27455 | 102.93909 | 35253 ft | 496 kts | 105° |
| 2026-04-25 16:30 | 60.25147 | 103.09467 | 35250 ft | 496 kts | 105° |
| 2026-04-25 16:31 | 60.23166 | 103.22766 | 35252 ft | 496 kts | 105° |
| 2026-04-25 16:31 | 60.21174 | 103.36055 | 35244 ft | 496 kts | 105° |
| 2026-04-25 16:32 | 60.19182 | 103.49226 | 35186 ft | 496 kts | 104° |
| 2026-04-25 16:32 | 60.17169 | 103.62442 | 35241 ft | 495 kts | 105° |
| 2026-04-25 16:33 | 60.15139 | 103.75671 | 35244 ft | 496 kts | 105° |
| 2026-04-25 16:33 | 60.13092 | 103.88906 | 35245 ft | 497 kts | 105° |
| 2026-04-25 16:34 | 60.11043 | 104.02047 | 35249 ft | 497 kts | 105° |
| 2026-04-25 16:34 | 60.08964 | 104.15276 | 35240 ft | 498 kts | 105° |
| 2026-04-25 16:35 | 60.06874 | 104.28483 | 35239 ft | 497 kts | 105° |
| 2026-04-25 16:35 | 60.04784 | 104.41588 | 35238 ft | 497 kts | 105° |
| 2026-04-25 16:36 | 60.02672 | 104.54734 | 35232 ft | 496 kts | 105° |
| 2026-04-25 16:36 | 60.00550 | 104.67840 | 35235 ft | 495 kts | 106° |
| 2026-04-25 16:37 | 59.98785 | 104.78676 | 35240 ft | 494 kts | 106° |
| 2026-04-25 16:37 | 59.96645 | 104.91724 | 35238 ft | 494 kts | 106° |
| 2026-04-25 16:38 | 59.94147 | 105.06832 | 35246 ft | 493 kts | 106° |
| 2026-04-25 16:38 | 59.91985 | 105.19824 | 35238 ft | 493 kts | 106° |
| 2026-04-25 16:39 | 59.90182 | 105.30572 | 35244 ft | 493 kts | 106° |
| 2026-04-25 16:39 | 59.87993 | 105.43496 | 35231 ft | 492 kts | 107° |
| 2026-04-25 16:40 | 59.85435 | 105.58486 | 35231 ft | 492 kts | 107° |
| 2026-04-25 16:40 | 59.83227 | 105.71340 | 35237 ft | 491 kts | 107° |
| 2026-04-25 16:41 | 59.81005 | 105.84192 | 35239 ft | 491 kts | 107° |
| 2026-04-25 16:41 | 59.78032 | 106.01252 | 35236 ft | 491 kts | 107° |
| 2026-04-25 16:42 | 59.75784 | 106.14043 | 35239 ft | 491 kts | 107° |
| 2026-04-25 16:42 | 59.73525 | 106.26810 | 35240 ft | 491 kts | 107° |
| 2026-04-25 16:43 | 59.71271 | 106.39468 | 35242 ft | 490 kts | 108° |
| 2026-04-25 16:43 | 59.68989 | 106.52191 | 35243 ft | 490 kts | 108° |
| 2026-04-25 16:44 | 59.66698 | 106.64881 | 35240 ft | 490 kts | 108° |
| 2026-04-25 16:44 | 59.64393 | 106.77563 | 35239 ft | 490 kts | 108° |
| 2026-04-25 16:45 | 59.62093 | 106.90129 | 35238 ft | 489 kts | 108° |
| 2026-04-25 16:45 | 59.59768 | 107.02755 | 35238 ft | 489 kts | 108° |
| 2026-04-25 16:46 | 59.57431 | 107.15361 | 35234 ft | 489 kts | 108° |
| 2026-04-25 16:46 | 59.55478 | 107.25833 | 35238 ft | 489 kts | 108° |
| 2026-04-25 16:47 | 59.52740 | 107.40416 | 35233 ft | 489 kts | 109° |
| 2026-04-25 16:47 | 59.50365 | 107.52975 | 35236 ft | 489 kts | 109° |
| 2026-04-25 16:48 | 59.47983 | 107.65499 | 35238 ft | 489 kts | 109° |
| 2026-04-25 16:48 | 59.45606 | 107.77911 | 35236 ft | 488 kts | 109° |
| 2026-04-25 16:49 | 59.43198 | 107.90404 | 35238 ft | 488 kts | 109° |
| 2026-04-25 16:49 | 59.40781 | 108.02866 | 35238 ft | 488 kts | 109° |
| 2026-04-25 16:50 | 59.38354 | 108.15298 | 35243 ft | 488 kts | 109° |
| 2026-04-25 16:50 | 59.35917 | 108.27713 | 35248 ft | 488 kts | 109° |
| 2026-04-25 16:51 | 59.33480 | 108.40039 | 35250 ft | 488 kts | 110° |
| 2026-04-25 16:51 | 59.31434 | 108.50334 | 35249 ft | 488 kts | 110° |
| 2026-04-25 16:52 | 59.28542 | 108.64792 | 35253 ft | 488 kts | 110° |
| 2026-04-25 16:52 | 59.26053 | 108.77153 | 35247 ft | 489 kts | 110° |
| 2026-04-25 16:53 | 59.22313 | 108.95586 | 35249 ft | 489 kts | 110° |
| 2026-04-25 16:54 | 59.19794 | 109.07908 | 35251 ft | 489 kts | 110° |
| 2026-04-25 16:54 | 59.17265 | 109.20199 | 35249 ft | 489 kts | 110° |
| 2026-04-25 16:55 | 59.14722 | 109.32487 | 35252 ft | 488 kts | 110° |
| 2026-04-25 16:55 | 59.12189 | 109.44652 | 35252 ft | 488 kts | 110° |
| 2026-04-25 16:56 | 59.09626 | 109.56892 | 35247 ft | 488 kts | 110° |
| 2026-04-25 16:56 | 59.07053 | 109.69100 | 35247 ft | 488 kts | 110° |
| 2026-04-25 16:57 | 59.04469 | 109.81290 | 35243 ft | 488 kts | 110° |
| 2026-04-25 16:57 | 59.01875 | 109.93459 | 35248 ft | 487 kts | 111° |
| 2026-04-25 16:58 | 58.99291 | 110.05506 | 35245 ft | 487 kts | 111° |
| 2026-04-25 16:58 | 58.96675 | 110.17636 | 35244 ft | 487 kts | 111° |
| 2026-04-25 16:59 | 58.94049 | 110.29739 | 35245 ft | 487 kts | 111° |
| 2026-04-25 16:59 | 58.91416 | 110.41800 | 35242 ft | 487 kts | 111° |
| 2026-04-25 17:00 | 58.88788 | 110.53773 | 35248 ft | 486 kts | 111° |
| 2026-04-25 17:00 | 58.86134 | 110.65795 | 35246 ft | 486 kts | 111° |
| 2026-04-25 17:01 | 58.83472 | 110.77783 | 35244 ft | 485 kts | 111° |
| 2026-04-25 17:01 | 58.80802 | 110.89739 | 35248 ft | 485 kts | 111° |
| 2026-04-25 17:02 | 58.78141 | 111.01591 | 35239 ft | 484 kts | 111° |
| 2026-04-25 17:02 | 58.75456 | 111.13480 | 35242 ft | 484 kts | 111° |
| 2026-04-25 17:03 | 58.72762 | 111.25347 | 35245 ft | 483 kts | 111° |
| 2026-04-25 17:03 | 58.70059 | 111.37186 | 35242 ft | 483 kts | 112° |
| 2026-04-25 17:04 | 58.67367 | 111.48921 | 35243 ft | 483 kts | 112° |
| 2026-04-25 17:04 | 58.64559 | 111.60620 | 35242 ft | 483 kts | 114° |
| 2026-04-25 17:05 | 58.61604 | 111.72197 | 35227 ft | 482 kts | 114° |
| 2026-04-25 17:05 | 58.57206 | 111.89537 | 35232 ft | 482 kts | 114° |
| 2026-04-25 17:06 | 58.54288 | 112.01010 | 35231 ft | 482 kts | 114° |
| 2026-04-25 17:06 | 58.51334 | 112.12526 | 35230 ft | 482 kts | 114° |
| 2026-04-25 17:07 | 58.48371 | 112.24031 | 35237 ft | 482 kts | 115° |
| 2026-04-25 17:07 | 58.45402 | 112.35513 | 35239 ft | 482 kts | 115° |
| 2026-04-25 17:08 | 58.42444 | 112.46889 | 35235 ft | 482 kts | 115° |
| 2026-04-25 17:08 | 58.39458 | 112.58318 | 35237 ft | 482 kts | 115° |
| 2026-04-25 17:09 | 58.36464 | 112.69735 | 35236 ft | 481 kts | 115° |
| 2026-04-25 17:09 | 58.33463 | 112.81135 | 35239 ft | 481 kts | 115° |
| 2026-04-25 17:10 | 58.30441 | 112.92390 | 35236 ft | 481 kts | 118° |
| 2026-04-25 17:10 | 58.26982 | 113.03276 | 35248 ft | 481 kts | 121° |
| 2026-04-25 17:11 | 58.23422 | 113.14028 | 35242 ft | 481 kts | 121° |
| 2026-04-25 17:11 | 58.19918 | 113.24820 | 35242 ft | 481 kts | 120° |
| 2026-04-25 17:12 | 58.16419 | 113.35607 | 35237 ft | 480 kts | 120° |
| 2026-04-25 17:12 | 58.12938 | 113.46292 | 35240 ft | 480 kts | 121° |
| 2026-04-25 17:13 | 58.09996 | 113.55284 | 35236 ft | 479 kts | 121° |
| 2026-04-25 17:13 | 58.05901 | 113.67720 | 35241 ft | 479 kts | 121° |
| 2026-04-25 17:14 | 58.02375 | 113.78387 | 35247 ft | 479 kts | 121° |
| 2026-04-25 17:14 | 57.98862 | 113.88972 | 35245 ft | 479 kts | 121° |
| 2026-04-25 17:15 | 57.95319 | 113.99598 | 35242 ft | 479 kts | 121° |
| 2026-04-25 17:15 | 57.91768 | 114.10210 | 35240 ft | 479 kts | 121° |
| 2026-04-25 17:16 | 57.88245 | 114.20813 | 35237 ft | 478 kts | 118° |
| 2026-04-25 17:16 | 57.85576 | 114.32104 | 35235 ft | 476 kts | 108° |
| 2026-04-25 17:17 | 57.83392 | 114.43833 | 35232 ft | 476 kts | 109° |
| 2026-04-25 17:17 | 57.81136 | 114.55493 | 35228 ft | 475 kts | 110° |
| 2026-04-25 17:18 | 57.78857 | 114.67108 | 35234 ft | 475 kts | 110° |
| 2026-04-25 17:18 | 57.76584 | 114.78635 | 35232 ft | 474 kts | 110° |
| 2026-04-25 17:19 | 57.74293 | 114.90205 | 35230 ft | 474 kts | 110° |
| 2026-04-25 17:19 | 57.71997 | 115.01739 | 35238 ft | 473 kts | 110° |
| 2026-04-25 17:20 | 57.69687 | 115.13257 | 35235 ft | 472 kts | 110° |
| 2026-04-25 17:20 | 57.67374 | 115.24727 | 35238 ft | 472 kts | 110° |
| 2026-04-25 17:21 | 57.65069 | 115.36101 | 35239 ft | 471 kts | 110° |
| 2026-04-25 17:21 | 57.62743 | 115.47521 | 35240 ft | 470 kts | 111° |
| 2026-04-25 17:22 | 57.60804 | 115.56989 | 35241 ft | 470 kts | 111° |
| 2026-04-25 17:22 | 57.58069 | 115.70270 | 35237 ft | 469 kts | 111° |
| 2026-04-25 17:23 | 57.55740 | 115.81510 | 35234 ft | 468 kts | 111° |
| 2026-04-25 17:23 | 57.53386 | 115.92809 | 35232 ft | 468 kts | 111° |
| 2026-04-25 17:24 | 57.51024 | 116.04078 | 35228 ft | 467 kts | 111° |
| 2026-04-25 17:24 | 57.48668 | 116.15260 | 35225 ft | 467 kts | 111° |
| 2026-04-25 17:25 | 57.46293 | 116.26478 | 35220 ft | 466 kts | 111° |
| 2026-04-25 17:25 | 57.43908 | 116.37675 | 35224 ft | 466 kts | 112° |
| 2026-04-25 17:26 | 57.41517 | 116.48850 | 35221 ft | 466 kts | 112° |
| 2026-04-25 17:26 | 57.39060 | 116.59952 | 35215 ft | 465 kts | 116° |
| 2026-04-25 17:27 | 57.35766 | 116.70138 | 35230 ft | 464 kts | 124° |
| 2026-04-25 17:27 | 57.32790 | 116.78394 | 35219 ft | 464 kts | 123° |
| 2026-04-25 17:28 | 57.28639 | 116.90058 | 35230 ft | 464 kts | 123° |
| 2026-04-25 17:28 | 57.25121 | 116.99959 | 35224 ft | 464 kts | 123° |
| 2026-04-25 17:29 | 57.21575 | 117.09902 | 35226 ft | 464 kts | 123° |
| 2026-04-25 17:29 | 57.18012 | 117.19843 | 35229 ft | 464 kts | 124° |
| 2026-04-25 17:30 | 57.14445 | 117.29753 | 35230 ft | 464 kts | 124° |
| 2026-04-25 17:30 | 57.10894 | 117.39576 | 35223 ft | 464 kts | 124° |
| 2026-04-25 17:31 | 57.07310 | 117.49453 | 35218 ft | 464 kts | 124° |
| 2026-04-25 17:31 | 57.03729 | 117.59278 | 35222 ft | 464 kts | 124° |
| 2026-04-25 17:32 | 57.00128 | 117.69119 | 35217 ft | 463 kts | 124° |
| 2026-04-25 17:32 | 56.96530 | 117.78914 | 35208 ft | 463 kts | 124° |
| 2026-04-25 17:33 | 56.92949 | 117.88621 | 35207 ft | 462 kts | 124° |
| 2026-04-25 17:33 | 56.89343 | 117.98356 | 35207 ft | 462 kts | 124° |
| 2026-04-25 17:34 | 56.85734 | 118.08061 | 35205 ft | 462 kts | 124° |
| 2026-04-25 17:34 | 56.82120 | 118.17743 | 35209 ft | 461 kts | 124° |
| 2026-04-25 17:35 | 56.78522 | 118.27338 | 35205 ft | 461 kts | 125° |
| 2026-04-25 17:35 | 56.74898 | 118.36969 | 35202 ft | 460 kts | 125° |
| 2026-04-25 17:36 | 56.71266 | 118.46582 | 35204 ft | 460 kts | 125° |
| 2026-04-25 17:36 | 56.67631 | 118.56163 | 35202 ft | 460 kts | 125° |
| 2026-04-25 17:37 | 56.64010 | 118.65672 | 35206 ft | 460 kts | 125° |
| 2026-04-25 17:37 | 56.60359 | 118.75222 | 35202 ft | 460 kts | 125° |
| 2026-04-25 17:38 | 56.57322 | 118.83137 | 35200 ft | 460 kts | 125° |
| 2026-04-25 17:38 | 56.53040 | 118.94251 | 35193 ft | 460 kts | 125° |
| 2026-04-25 17:39 | 56.49400 | 119.03661 | 35188 ft | 459 kts | 125° |
| 2026-04-25 17:39 | 56.45732 | 119.13107 | 35187 ft | 459 kts | 125° |
| 2026-04-25 17:40 | 56.42058 | 119.22531 | 35182 ft | 459 kts | 125° |
| 2026-04-25 17:40 | 56.38372 | 119.31948 | 35179 ft | 459 kts | 125° |
| 2026-04-25 17:41 | 56.34706 | 119.41278 | 35172 ft | 459 kts | 125° |
| 2026-04-25 17:41 | 56.31014 | 119.50639 | 35176 ft | 459 kts | 125° |
| 2026-04-25 17:42 | 56.27310 | 119.59994 | 35173 ft | 459 kts | 125° |
| 2026-04-25 17:42 | 56.23598 | 119.69336 | 35164 ft | 459 kts | 126° |
| 2026-04-25 17:43 | 56.19905 | 119.78593 | 35162 ft | 459 kts | 126° |
| 2026-04-25 17:43 | 56.16177 | 119.87901 | 35155 ft | 459 kts | 126° |
| 2026-04-25 17:44 | 56.12441 | 119.97196 | 35143 ft | 459 kts | 126° |
| 2026-04-25 17:44 | 56.08700 | 120.06467 | 35138 ft | 459 kts | 126° |
| 2026-04-25 17:45 | 56.05583 | 120.14164 | 35133 ft | 459 kts | 126° |
| 2026-04-25 17:45 | 56.01216 | 120.24908 | 35120 ft | 459 kts | 126° |
| 2026-04-25 17:46 | 55.97455 | 120.34125 | 35118 ft | 459 kts | 126° |
| 2026-04-25 17:46 | 55.93690 | 120.43321 | 35111 ft | 459 kts | 126° |
| 2026-04-25 17:47 | 55.89944 | 120.52435 | 35108 ft | 459 kts | 126° |
| 2026-04-25 17:47 | 55.86165 | 120.61592 | 35103 ft | 459 kts | 126° |
| 2026-04-25 17:48 | 55.80490 | 120.75289 | 35103 ft | 458 kts | 126° |
| 2026-04-25 17:49 | 55.76724 | 120.84344 | 35101 ft | 458 kts | 126° |
| 2026-04-25 17:49 | 55.72933 | 120.93422 | 35096 ft | 458 kts | 126° |
| 2026-04-25 17:50 | 55.69130 | 121.02496 | 35090 ft | 458 kts | 126° |
| 2026-04-25 17:50 | 55.65328 | 121.11535 | 35088 ft | 458 kts | 126° |
| 2026-04-25 17:51 | 55.61540 | 121.20508 | 35083 ft | 458 kts | 126° |
| 2026-04-25 17:51 | 55.57721 | 121.29523 | 35084 ft | 457 kts | 126° |
| 2026-04-25 17:52 | 55.53903 | 121.38501 | 35074 ft | 457 kts | 126° |
| 2026-04-25 17:52 | 55.50075 | 121.47473 | 35076 ft | 457 kts | 126° |
| 2026-04-25 17:53 | 55.46268 | 121.56365 | 35070 ft | 458 kts | 126° |
| 2026-04-25 17:53 | 55.42423 | 121.65302 | 35068 ft | 458 kts | 126° |
| 2026-04-25 17:54 | 55.38569 | 121.74229 | 35063 ft | 458 kts | 126° |
| 2026-04-25 17:54 | 55.34714 | 121.83132 | 35062 ft | 458 kts | 126° |
| 2026-04-25 17:55 | 55.30866 | 121.91989 | 35060 ft | 458 kts | 126° |
| 2026-04-25 17:55 | 55.26993 | 122.00872 | 35061 ft | 459 kts | 126° |
| 2026-04-25 17:56 | 55.23108 | 122.09751 | 35059 ft | 459 kts | 126° |
| 2026-04-25 17:56 | 55.19218 | 122.18613 | 35056 ft | 459 kts | 126° |
| 2026-04-25 17:57 | 55.15346 | 122.27396 | 35053 ft | 459 kts | 126° |
| 2026-04-25 17:57 | 55.11428 | 122.36224 | 35058 ft | 459 kts | 127° |
| 2026-04-25 17:58 | 55.07505 | 122.45028 | 35055 ft | 459 kts | 127° |
| 2026-04-25 17:58 | 55.03576 | 122.53821 | 35055 ft | 459 kts | 127° |
| 2026-04-25 17:59 | 54.99666 | 122.62544 | 35054 ft | 460 kts | 127° |
| 2026-04-25 17:59 | 54.95726 | 122.71303 | 35057 ft | 459 kts | 127° |
| 2026-04-25 18:00 | 54.91782 | 122.80041 | 35058 ft | 459 kts | 127° |
| 2026-04-25 18:00 | 54.87832 | 122.88759 | 35052 ft | 459 kts | 127° |
| 2026-04-25 18:01 | 54.83901 | 122.97406 | 35054 ft | 459 kts | 127° |
| 2026-04-25 18:01 | 54.79939 | 123.06095 | 35052 ft | 459 kts | 127° |
| 2026-04-25 18:02 | 54.75975 | 123.14757 | 35041 ft | 459 kts | 127° |
| 2026-04-25 18:02 | 54.71993 | 123.23398 | 35040 ft | 459 kts | 127° |
| 2026-04-25 18:03 | 54.68033 | 123.31951 | 35039 ft | 459 kts | 127° |
| 2026-04-25 18:03 | 54.64040 | 123.40555 | 35025 ft | 459 kts | 127° |
| 2026-04-25 18:04 | 54.60043 | 123.49138 | 35023 ft | 459 kts | 127° |
| 2026-04-25 18:04 | 54.56038 | 123.57711 | 35018 ft | 459 kts | 127° |
| 2026-04-25 18:05 | 54.52056 | 123.66208 | 35010 ft | 459 kts | 127° |
| 2026-04-25 18:05 | 54.48033 | 123.74762 | 35002 ft | 460 kts | 127° |
| 2026-04-25 18:06 | 54.44003 | 123.83298 | 35000 ft | 460 kts | 127° |
| 2026-04-25 18:06 | 54.39963 | 123.91827 | 34991 ft | 460 kts | 127° |
| 2026-04-25 18:07 | 54.35946 | 124.00278 | 34992 ft | 460 kts | 127° |
| 2026-04-25 18:07 | 54.31892 | 124.08779 | 34990 ft | 460 kts | 127° |
| 2026-04-25 18:08 | 54.27838 | 124.17250 | 34992 ft | 460 kts | 127° |
| 2026-04-25 18:08 | 54.23776 | 124.25709 | 34987 ft | 460 kts | 127° |
| 2026-04-25 18:09 | 54.19738 | 124.34092 | 34985 ft | 460 kts | 127° |
| 2026-04-25 18:09 | 54.15664 | 124.42520 | 34986 ft | 460 kts | 127° |
| 2026-04-25 18:10 | 54.11584 | 124.50937 | 34981 ft | 460 kts | 127° |
| 2026-04-25 18:10 | 54.07496 | 124.59330 | 34985 ft | 460 kts | 127° |
| 2026-04-25 18:11 | 54.03403 | 124.67629 | 34982 ft | 461 kts | 128° |
| 2026-04-25 18:11 | 53.99276 | 124.75959 | 34978 ft | 461 kts | 128° |
| 2026-04-25 18:12 | 53.95147 | 124.84277 | 34979 ft | 461 kts | 128° |
| 2026-04-25 18:12 | 53.91012 | 124.92586 | 34981 ft | 461 kts | 128° |
| 2026-04-25 18:13 | 53.86897 | 125.00830 | 34978 ft | 461 kts | 128° |
| 2026-04-25 18:13 | 53.82749 | 125.09110 | 34979 ft | 461 kts | 128° |
| 2026-04-25 18:14 | 53.76519 | 125.21541 | 34973 ft | 462 kts | 128° |
| 2026-04-25 18:14 | 53.72366 | 125.29810 | 34969 ft | 462 kts | 128° |
| 2026-04-25 18:15 | 53.68232 | 125.38011 | 34974 ft | 462 kts | 128° |
| 2026-04-25 18:15 | 53.64068 | 125.46245 | 34970 ft | 461 kts | 128° |
| 2026-04-25 18:16 | 53.59900 | 125.54459 | 34962 ft | 461 kts | 128° |
| 2026-04-25 18:17 | 53.53666 | 125.66695 | 34969 ft | 461 kts | 128° |
| 2026-04-25 18:17 | 53.49488 | 125.74867 | 34969 ft | 461 kts | 128° |
| 2026-04-25 18:18 | 53.45333 | 125.83057 | 34970 ft | 460 kts | 126° |
| 2026-04-25 18:18 | 53.41401 | 125.91502 | 34969 ft | 459 kts | 125° |
| 2026-04-25 18:19 | 53.37532 | 125.99940 | 34963 ft | 459 kts | 125° |
| 2026-04-25 18:19 | 53.33608 | 126.08379 | 34975 ft | 460 kts | 126° |
| 2026-04-25 18:20 | 53.29655 | 126.16788 | 34979 ft | 460 kts | 126° |
| 2026-04-25 18:20 | 53.25691 | 126.25178 | 34972 ft | 460 kts | 126° |
| 2026-04-25 18:21 | 53.21745 | 126.33504 | 34971 ft | 460 kts | 126° |
| 2026-04-25 18:21 | 53.17767 | 126.41873 | 34967 ft | 461 kts | 126° |
| 2026-04-25 18:22 | 53.13780 | 126.50232 | 34972 ft | 461 kts | 126° |
| 2026-04-25 18:22 | 53.09787 | 126.58578 | 34967 ft | 461 kts | 127° |
| 2026-04-25 18:23 | 53.05785 | 126.66914 | 34968 ft | 461 kts | 127° |
| 2026-04-25 18:23 | 53.01801 | 126.75186 | 34971 ft | 462 kts | 127° |
| 2026-04-25 18:24 | 52.97781 | 126.83506 | 34975 ft | 462 kts | 127° |
| 2026-04-25 18:24 | 52.93752 | 126.91819 | 34973 ft | 463 kts | 127° |
| 2026-04-25 18:25 | 52.89714 | 127.00121 | 34969 ft | 463 kts | 127° |
| 2026-04-25 18:25 | 52.85696 | 127.08360 | 34970 ft | 463 kts | 127° |
| 2026-04-25 18:26 | 52.81636 | 127.16652 | 34969 ft | 464 kts | 127° |
| 2026-04-25 18:26 | 52.77566 | 127.24940 | 34969 ft | 464 kts | 127° |
| 2026-04-25 18:27 | 52.73496 | 127.33209 | 34966 ft | 465 kts | 127° |
| 2026-04-25 18:27 | 52.69431 | 127.41444 | 34969 ft | 465 kts | 128° |
| 2026-04-25 18:28 | 52.65325 | 127.49694 | 34966 ft | 466 kts | 128° |
| 2026-04-25 18:28 | 52.61186 | 127.57920 | 34968 ft | 467 kts | 128° |
| 2026-04-25 18:29 | 52.54959 | 127.70254 | 34962 ft | 468 kts | 128° |
| 2026-04-25 18:30 | 52.46647 | 127.86650 | 34970 ft | 470 kts | 128° |
| 2026-04-25 18:30 | 52.42458 | 127.94871 | 34963 ft | 470 kts | 128° |
| 2026-04-25 18:31 | 52.38252 | 128.03101 | 34961 ft | 471 kts | 128° |
| 2026-04-25 18:31 | 52.34036 | 128.11323 | 34963 ft | 472 kts | 128° |
| 2026-04-25 18:32 | 52.29833 | 128.19493 | 34955 ft | 473 kts | 128° |
| 2026-04-25 18:32 | 52.25590 | 128.27714 | 34963 ft | 474 kts | 129° |
| 2026-04-25 18:33 | 52.21334 | 128.35932 | 34959 ft | 474 kts | 129° |
| 2026-04-25 18:33 | 52.17068 | 128.44145 | 34950 ft | 475 kts | 129° |
| 2026-04-25 18:34 | 52.12817 | 128.52300 | 34956 ft | 475 kts | 129° |
| 2026-04-25 18:34 | 52.08533 | 128.60494 | 34966 ft | 476 kts | 129° |
| 2026-04-25 18:35 | 52.04244 | 128.68670 | 34963 ft | 476 kts | 129° |
| 2026-04-25 18:35 | 51.99940 | 128.76847 | 34955 ft | 476 kts | 129° |
| 2026-04-25 18:36 | 51.95667 | 128.84941 | 34959 ft | 476 kts | 129° |
| 2026-04-25 18:36 | 51.91356 | 128.93079 | 34953 ft | 476 kts | 130° |
| 2026-04-25 18:37 | 51.87040 | 129.01203 | 34958 ft | 476 kts | 130° |
| 2026-04-25 18:37 | 51.82715 | 129.09314 | 34947 ft | 476 kts | 130° |
| 2026-04-25 18:38 | 51.78410 | 129.17365 | 34948 ft | 477 kts | 130° |
| 2026-04-25 18:38 | 51.74067 | 129.25459 | 34957 ft | 477 kts | 130° |
| 2026-04-25 18:39 | 51.69714 | 129.33547 | 34951 ft | 478 kts | 130° |
| 2026-04-25 18:39 | 51.65347 | 129.41635 | 34950 ft | 478 kts | 130° |
| 2026-04-25 18:40 | 51.61004 | 129.49654 | 34947 ft | 479 kts | 131° |
| 2026-04-25 18:40 | 51.56620 | 129.57721 | 34949 ft | 479 kts | 131° |
| 2026-04-25 18:41 | 51.52226 | 129.65782 | 34960 ft | 480 kts | 131° |
| 2026-04-25 18:41 | 51.47825 | 129.73831 | 34962 ft | 480 kts | 131° |
| 2026-04-25 18:42 | 51.44904 | 129.79158 | 34948 ft | 480 kts | 131° |
| 2026-04-25 18:42 | 51.39020 | 129.89859 | 34953 ft | 481 kts | 131° |
| 2026-04-25 18:43 | 51.34588 | 129.97891 | 34962 ft | 482 kts | 132° |
| 2026-04-25 18:43 | 51.30111 | 130.05878 | 34968 ft | 483 kts | 133° |
| 2026-04-25 18:44 | 51.25568 | 130.13783 | 34954 ft | 483 kts | 133° |
| 2026-04-25 18:44 | 51.21048 | 130.21629 | 34956 ft | 484 kts | 133° |
| 2026-04-25 18:45 | 51.16488 | 130.29545 | 34960 ft | 485 kts | 133° |
| 2026-04-25 18:45 | 51.11918 | 130.37465 | 34970 ft | 486 kts | 134° |
| 2026-04-25 18:46 | 51.07344 | 130.45369 | 34959 ft | 486 kts | 134° |
| 2026-04-25 18:46 | 51.02749 | 130.53282 | 34967 ft | 487 kts | 134° |
| 2026-04-25 18:47 | 50.98180 | 130.61123 | 34967 ft | 488 kts | 134° |
| 2026-04-25 18:47 | 50.93564 | 130.69024 | 34971 ft | 488 kts | 134° |
| 2026-04-25 18:48 | 50.88942 | 130.76910 | 34978 ft | 489 kts | 134° |
| 2026-04-25 18:48 | 50.84334 | 130.84751 | 34973 ft | 489 kts | 135° |
| 2026-04-25 18:49 | 50.79685 | 130.92626 | 34974 ft | 490 kts | 135° |
| 2026-04-25 18:49 | 50.75029 | 131.00477 | 34979 ft | 490 kts | 135° |
| 2026-04-25 18:50 | 50.70359 | 131.08330 | 34980 ft | 490 kts | 135° |
| 2026-04-25 18:50 | 50.65720 | 131.16111 | 34974 ft | 491 kts | 135° |
| 2026-04-25 18:51 | 50.62587 | 131.21353 | 34975 ft | 491 kts | 135° |
| 2026-04-25 18:51 | 50.56353 | 131.31752 | 34975 ft | 491 kts | 136° |
| 2026-04-25 18:52 | 50.51659 | 131.39554 | 34978 ft | 491 kts | 136° |
| 2026-04-25 18:52 | 50.46963 | 131.47333 | 34980 ft | 491 kts | 136° |
| 2026-04-25 18:53 | 50.42285 | 131.55061 | 34975 ft | 492 kts | 136° |
| 2026-04-25 18:53 | 50.37565 | 131.62834 | 34971 ft | 492 kts | 136° |
| 2026-04-25 18:54 | 50.30475 | 131.74466 | 34975 ft | 493 kts | 137° |
| 2026-04-25 18:55 | 50.25734 | 131.82214 | 34972 ft | 493 kts | 137° |
| 2026-04-25 18:55 | 50.21019 | 131.89899 | 34973 ft | 494 kts | 137° |
| 2026-04-25 18:56 | 50.16261 | 131.97622 | 34974 ft | 494 kts | 137° |
| 2026-04-25 18:56 | 50.11486 | 132.05343 | 34980 ft | 494 kts | 137° |
| 2026-04-25 18:57 | 50.06741 | 132.13002 | 34977 ft | 495 kts | 137° |
| 2026-04-25 18:57 | 50.01958 | 132.20690 | 34977 ft | 495 kts | 138° |
| 2026-04-25 18:58 | 49.97139 | 132.28341 | 34972 ft | 495 kts | 138° |
| 2026-04-25 18:58 | 49.89901 | 132.39770 | 34972 ft | 495 kts | 139° |
| 2026-04-25 18:59 | 49.80250 | 132.54959 | 34973 ft | 496 kts | 139° |
| 2026-04-25 19:00 | 49.72970 | 132.66359 | 34980 ft | 497 kts | 139° |
| 2026-04-25 19:01 | 49.65697 | 132.77696 | 34977 ft | 498 kts | 139° |
| 2026-04-25 19:01 | 49.60812 | 132.85285 | 34968 ft | 499 kts | 140° |
| 2026-04-25 19:02 | 49.53457 | 132.96658 | 34979 ft | 499 kts | 140° |
| 2026-04-25 19:03 | 49.47748 | 133.05440 | 34987 ft | 500 kts | 140° |
| 2026-04-25 19:03 | 49.41190 | 133.15498 | 34974 ft | 501 kts | 140° |
| 2026-04-25 19:04 | 49.33786 | 133.26813 | 34971 ft | 501 kts | 141° |
| 2026-04-25 19:05 | 49.23925 | 133.41784 | 34966 ft | 503 kts | 139° |
| 2026-04-25 19:06 | 49.19579 | 133.50273 | 34960 ft | 513 kts | 127° |
| 2026-04-25 19:06 | 49.14203 | 133.64501 | 34958 ft | 516 kts | 126° |
| 2026-04-25 19:07 | 49.08758 | 133.78612 | 34960 ft | 517 kts | 127° |
| 2026-04-25 19:08 | 49.03237 | 133.92768 | 34957 ft | 519 kts | 127° |
| 2026-04-25 19:09 | 48.97080 | 134.08494 | 34948 ft | 521 kts | 127° |
| 2026-04-25 19:10 | 48.89499 | 134.24742 | 34948 ft | 503 kts | 146° |
| 2026-04-25 19:10 | 48.83998 | 134.30999 | 34943 ft | 487 kts | 158° |
| 2026-04-25 19:11 | 48.78180 | 134.36355 | 34935 ft | 490 kts | 158° |
| 2026-04-25 19:11 | 48.72418 | 134.41778 | 34936 ft | 492 kts | 157° |
| 2026-04-25 19:12 | 48.66612 | 134.47279 | 34934 ft | 493 kts | 157° |
| 2026-04-25 19:12 | 48.60796 | 134.52776 | 34932 ft | 493 kts | 158° |
| 2026-04-25 19:13 | 48.54985 | 134.58248 | 34933 ft | 492 kts | 158° |
| 2026-04-25 19:13 | 48.49217 | 134.63662 | 34930 ft | 491 kts | 158° |
| 2026-04-25 19:14 | 48.43422 | 134.69087 | 34924 ft | 490 kts | 158° |
| 2026-04-25 19:14 | 48.37637 | 134.74487 | 34930 ft | 489 kts | 158° |
| 2026-04-25 19:15 | 48.31861 | 134.79863 | 34923 ft | 488 kts | 158° |
| 2026-04-25 19:15 | 48.26085 | 134.85225 | 34921 ft | 488 kts | 158° |
| 2026-04-25 19:16 | 48.20345 | 134.90539 | 34913 ft | 488 kts | 158° |
| 2026-04-25 19:16 | 48.14565 | 134.95876 | 34918 ft | 488 kts | 159° |
| 2026-04-25 19:17 | 48.08780 | 135.01205 | 34928 ft | 489 kts | 159° |
| 2026-04-25 19:17 | 48.02981 | 135.06534 | 34932 ft | 490 kts | 159° |
| 2026-04-25 19:18 | 47.97100 | 135.11329 | 34989 ft | 475 kts | 172° |
| 2026-04-25 19:18 | 47.93963 | 135.12463 | 35275 ft | 459 kts | 182° |
| 2026-04-25 19:18 | 47.90804 | 135.12825 | 35553 ft | 448 kts | 190° |
| 2026-04-25 19:18 | 47.87737 | 135.12412 | 35740 ft | 441 kts | 196° |
| 2026-04-25 19:19 | 47.84676 | 135.11887 | 35845 ft | 446 kts | 194° |
| 2026-04-25 19:19 | 47.78463 | 135.11099 | 35926 ft | 448 kts | 193° |
| 2026-04-25 19:20 | 47.72270 | 135.10331 | 35928 ft | 445 kts | 194° |
| 2026-04-25 19:20 | 47.66141 | 135.09549 | 35930 ft | 444 kts | 194° |
| 2026-04-25 19:21 | 47.59990 | 135.08760 | 35936 ft | 444 kts | 194° |
| 2026-04-25 19:21 | 47.50757 | 135.07582 | 35941 ft | 444 kts | 194° |
| 2026-04-25 19:22 | 47.44601 | 135.06801 | 35936 ft | 445 kts | 194° |
| 2026-04-25 19:23 | 47.35388 | 135.05636 | 35941 ft | 445 kts | 194° |
| 2026-04-25 19:23 | 47.26125 | 135.04469 | 35937 ft | 446 kts | 194° |
| 2026-04-25 19:24 | 47.19943 | 135.03693 | 35942 ft | 445 kts | 194° |
| 2026-04-25 19:25 | 47.07637 | 135.02152 | 35941 ft | 445 kts | 194° |
| 2026-04-25 19:25 | 47.01476 | 135.01383 | 35946 ft | 445 kts | 193° |
| 2026-04-25 19:26 | 46.95311 | 135.00615 | 35943 ft | 444 kts | 193° |
| 2026-04-25 19:26 | 46.89192 | 134.99854 | 35950 ft | 444 kts | 193° |
| 2026-04-25 19:27 | 46.85079 | 134.99344 | 35950 ft | 444 kts | 193° |
| 2026-04-25 19:27 | 46.76903 | 134.98294 | 35954 ft | 443 kts | 194° |
| 2026-04-25 19:28 | 46.70759 | 134.97446 | 35947 ft | 443 kts | 194° |
| 2026-04-25 19:28 | 46.64620 | 134.96601 | 35953 ft | 443 kts | 194° |
| 2026-04-25 19:29 | 46.58522 | 134.95770 | 35951 ft | 443 kts | 194° |
| 2026-04-25 19:29 | 46.52375 | 134.94938 | 35948 ft | 444 kts | 194° |
| 2026-04-25 19:30 | 46.46214 | 134.94106 | 35948 ft | 444 kts | 194° |
| 2026-04-25 19:30 | 46.40057 | 134.93277 | 35953 ft | 445 kts | 193° |
| 2026-04-25 19:31 | 46.33936 | 134.92454 | 35956 ft | 445 kts | 193° |
| 2026-04-25 19:31 | 46.27758 | 134.91625 | 35956 ft | 446 kts | 193° |
| 2026-04-25 19:32 | 46.21577 | 134.90797 | 35953 ft | 446 kts | 193° |
| 2026-04-25 19:32 | 46.17484 | 134.90251 | 35958 ft | 446 kts | 193° |
| 2026-04-25 19:33 | 46.09205 | 134.89148 | 35954 ft | 447 kts | 193° |
| 2026-04-25 19:33 | 46.03046 | 134.88329 | 35948 ft | 447 kts | 193° |
| 2026-04-25 19:34 | 45.96852 | 134.87507 | 35948 ft | 448 kts | 193° |
| 2026-04-25 19:34 | 45.90783 | 134.86046 | 35946 ft | 435 kts | 205° |
| 2026-04-25 19:35 | 45.85250 | 134.82805 | 35947 ft | 425 kts | 216° |
| 2026-04-25 19:35 | 45.80162 | 134.78615 | 35950 ft | 425 kts | 216° |
| 2026-04-25 19:36 | 45.75009 | 134.74418 | 35945 ft | 426 kts | 216° |
| 2026-04-25 19:36 | 45.69838 | 134.70241 | 35940 ft | 427 kts | 216° |
| 2026-04-25 19:37 | 45.64654 | 134.66068 | 35938 ft | 428 kts | 216° |
| 2026-04-25 19:37 | 45.59465 | 134.61899 | 35932 ft | 428 kts | 216° |
| 2026-04-25 19:38 | 45.54308 | 134.57769 | 35938 ft | 428 kts | 215° |
| 2026-04-25 19:38 | 45.49110 | 134.53613 | 35937 ft | 428 kts | 215° |
| 2026-04-25 19:39 | 45.44796 | 134.50170 | 35922 ft | 428 kts | 215° |
| 2026-04-25 19:39 | 45.38718 | 134.45328 | 35925 ft | 428 kts | 215° |
| 2026-04-25 19:40 | 45.33550 | 134.41223 | 35923 ft | 428 kts | 215° |
| 2026-04-25 19:40 | 45.28344 | 134.37095 | 35923 ft | 429 kts | 215° |
| 2026-04-25 19:41 | 45.23129 | 134.32966 | 35913 ft | 429 kts | 215° |
| 2026-04-25 19:41 | 45.19645 | 134.30214 | 35912 ft | 429 kts | 215° |
| 2026-04-25 19:42 | 45.12735 | 134.24768 | 35909 ft | 429 kts | 214° |
| 2026-04-25 19:42 | 45.07514 | 134.20664 | 35920 ft | 430 kts | 214° |
| 2026-04-25 19:43 | 45.02281 | 134.16558 | 35905 ft | 430 kts | 214° |
| 2026-04-25 19:43 | 44.97925 | 134.13145 | 35913 ft | 431 kts | 214° |
| 2026-04-25 19:44 | 44.91832 | 134.08382 | 35901 ft | 431 kts | 214° |
| 2026-04-25 19:44 | 44.86593 | 134.04295 | 35899 ft | 430 kts | 214° |
| 2026-04-25 19:45 | 44.82245 | 134.00902 | 35902 ft | 429 kts | 215° |
| 2026-04-25 19:45 | 44.77079 | 133.96695 | 35902 ft | 429 kts | 216° |
| 2026-04-25 19:46 | 44.71097 | 133.91764 | 35898 ft | 429 kts | 215° |
| 2026-04-25 19:46 | 44.66776 | 133.88223 | 35899 ft | 429 kts | 215° |
| 2026-04-25 19:47 | 44.61649 | 133.84043 | 35899 ft | 429 kts | 215° |
| 2026-04-25 19:47 | 44.56485 | 133.79845 | 35887 ft | 429 kts | 215° |
| 2026-04-25 19:48 | 44.50505 | 133.74997 | 35892 ft | 424 kts | 215° |
| 2026-04-25 19:48 | 44.46251 | 133.71557 | 35873 ft | 416 kts | 215° |
| 2026-04-25 19:49 | 44.43799 | 133.69579 | 35629 ft | 410 kts | 215° |
| 2026-04-25 19:49 | 44.42140 | 133.68241 | 35407 ft | 406 kts | 215° |
| 2026-04-25 19:49 | 44.38928 | 133.65650 | 34815 ft | 400 kts | 215° |
| 2026-04-25 19:49 | 44.36531 | 133.63717 | 34353 ft | 397 kts | 216° |
| 2026-04-25 19:50 | 44.31781 | 133.59892 | 33334 ft | 391 kts | 216° |
| 2026-04-25 19:50 | 44.29433 | 133.58005 | 32837 ft | 388 kts | 216° |
| 2026-04-25 19:50 | 44.27108 | 133.56137 | 32351 ft | 384 kts | 215° |
| 2026-04-25 19:51 | 44.24838 | 133.54315 | 31891 ft | 380 kts | 215° |
| 2026-04-25 19:51 | 44.22553 | 133.52484 | 31430 ft | 377 kts | 215° |
| 2026-04-25 19:51 | 44.20298 | 133.50677 | 30968 ft | 374 kts | 215° |
| 2026-04-25 19:51 | 44.18040 | 133.48870 | 30518 ft | 371 kts | 215° |
| 2026-04-25 19:52 | 44.15809 | 133.47087 | 30065 ft | 369 kts | 215° |
| 2026-04-25 19:52 | 44.13584 | 133.45309 | 29569 ft | 367 kts | 215° |
| 2026-04-25 19:52 | 44.11383 | 133.43551 | 29076 ft | 363 kts | 215° |
| 2026-04-25 19:52 | 44.09200 | 133.41811 | 28611 ft | 360 kts | 215° |
| 2026-04-25 19:53 | 44.07069 | 133.40112 | 28162 ft | 356 kts | 215° |
| 2026-04-25 19:53 | 44.04925 | 133.38405 | 27716 ft | 354 kts | 215° |
| 2026-04-25 19:53 | 44.02793 | 133.36710 | 27270 ft | 351 kts | 215° |
| 2026-04-25 19:53 | 44.00679 | 133.35029 | 26825 ft | 349 kts | 215° |
| 2026-04-25 19:54 | 43.98579 | 133.33360 | 26386 ft | 347 kts | 214° |
| 2026-04-25 19:54 | 43.96487 | 133.31698 | 25952 ft | 345 kts | 214° |
| 2026-04-25 19:54 | 43.94406 | 133.30048 | 25528 ft | 343 kts | 214° |
| 2026-04-25 19:54 | 43.93035 | 133.28963 | 25247 ft | 342 kts | 214° |
| 2026-04-25 19:55 | 43.90323 | 133.26710 | 24674 ft | 337 kts | 220° |
| 2026-04-25 19:55 | 43.88581 | 133.24646 | 24280 ft | 332 kts | 227° |
| 2026-04-25 19:55 | 43.87008 | 133.22323 | 23864 ft | 329 kts | 232° |
| 2026-04-25 19:55 | 43.85661 | 133.19778 | 23438 ft | 327 kts | 237° |
| 2026-04-25 19:56 | 43.84396 | 133.17170 | 22965 ft | 326 kts | 237° |
| 2026-04-25 19:56 | 43.83135 | 133.14570 | 22511 ft | 324 kts | 237° |
| 2026-04-25 19:56 | 43.81879 | 133.11989 | 22077 ft | 322 kts | 237° |
| 2026-04-25 19:56 | 43.80628 | 133.09422 | 21671 ft | 321 kts | 238° |
| 2026-04-25 19:57 | 43.79381 | 133.06875 | 21247 ft | 319 kts | 237° |
| 2026-04-25 19:57 | 43.78139 | 133.04341 | 20849 ft | 317 kts | 238° |
| 2026-04-25 19:57 | 43.76907 | 133.01829 | 20451 ft | 315 kts | 237° |
| 2026-04-25 19:57 | 43.75694 | 132.99361 | 20062 ft | 313 kts | 238° |
| 2026-04-25 19:58 | 43.74470 | 132.96875 | 19647 ft | 312 kts | 237° |
| 2026-04-25 19:58 | 43.73252 | 132.94401 | 19245 ft | 310 kts | 237° |
| 2026-04-25 19:58 | 43.72038 | 132.91944 | 18866 ft | 308 kts | 238° |
| 2026-04-25 19:58 | 43.70834 | 132.89503 | 18477 ft | 307 kts | 238° |
| 2026-04-25 19:59 | 43.69628 | 132.87060 | 18063 ft | 307 kts | 237° |
| 2026-04-25 19:59 | 43.68428 | 132.84633 | 17621 ft | 306 kts | 238° |
| 2026-04-25 19:59 | 43.67228 | 132.82207 | 17200 ft | 305 kts | 238° |
| 2026-04-25 19:59 | 43.66033 | 132.79806 | 16797 ft | 303 kts | 237° |
| 2026-04-25 20:00 | 43.64721 | 132.77576 | 16401 ft | 303 kts | 231° |
| 2026-04-25 20:00 | 43.63751 | 132.76141 | 16129 ft | 303 kts | 230° |
| 2026-04-25 20:00 | 43.61819 | 132.73383 | 15636 ft | 301 kts | 229° |
| 2026-04-25 20:00 | 43.60368 | 132.71308 | 15248 ft | 300 kts | 230° |
| 2026-04-25 20:01 | 43.57504 | 132.67161 | 14507 ft | 297 kts | 230° |
| 2026-04-25 20:01 | 43.56083 | 132.65088 | 14123 ft | 297 kts | 230° |
| 2026-04-25 20:01 | 43.54670 | 132.63019 | 13737 ft | 297 kts | 230° |
| 2026-04-25 20:02 | 43.53261 | 132.60954 | 13321 ft | 295 kts | 230° |
| 2026-04-25 20:02 | 43.51871 | 132.58918 | 12913 ft | 295 kts | 230° |
| 2026-04-25 20:02 | 43.50477 | 132.56875 | 12543 ft | 292 kts | 230° |
| 2026-04-25 20:02 | 43.49090 | 132.54841 | 12150 ft | 290 kts | 230° |
| 2026-04-25 20:03 | 43.47710 | 132.52817 | 11804 ft | 289 kts | 230° |
| 2026-04-25 20:03 | 43.46337 | 132.50807 | 11426 ft | 288 kts | 230° |
| 2026-04-25 20:03 | 43.44970 | 132.48804 | 11055 ft | 287 kts | 230° |
| 2026-04-25 20:03 | 43.43607 | 132.46805 | 10699 ft | 286 kts | 230° |
| 2026-04-25 20:04 | 43.42250 | 132.44820 | 10411 ft | 282 kts | 230° |
| 2026-04-25 20:04 | 43.40940 | 132.42910 | 10276 ft | 274 kts | 231° |
| 2026-04-25 20:04 | 43.39650 | 132.41027 | 10155 ft | 266 kts | 231° |
| 2026-04-25 20:04 | 43.38398 | 132.39205 | 10030 ft | 258 kts | 231° |
| 2026-04-25 20:05 | 43.37262 | 132.37384 | 9913 ft | 243 kts | 239° |
| 2026-04-25 20:05 | 43.36407 | 132.35414 | 9663 ft | 239 kts | 244° |
| 2026-04-25 20:05 | 43.35621 | 132.33411 | 9381 ft | 237 kts | 244° |
| 2026-04-25 20:05 | 43.34844 | 132.31424 | 9109 ft | 236 kts | 244° |
| 2026-04-25 20:06 | 43.34066 | 132.29451 | 8810 ft | 234 kts | 244° |
| 2026-04-25 20:06 | 43.33287 | 132.27490 | 8523 ft | 233 kts | 244° |
| 2026-04-25 20:06 | 43.32518 | 132.25575 | 8240 ft | 232 kts | 244° |
| 2026-04-25 20:06 | 43.31742 | 132.23645 | 7993 ft | 229 kts | 244° |
| 2026-04-25 20:07 | 43.30979 | 132.21751 | 7764 ft | 226 kts | 244° |
| 2026-04-25 20:07 | 43.30218 | 132.19879 | 7508 ft | 224 kts | 244° |
| 2026-04-25 20:07 | 43.29459 | 132.18002 | 7236 ft | 226 kts | 244° |
| 2026-04-25 20:07 | 43.28694 | 132.16121 | 6983 ft | 227 kts | 244° |
| 2026-04-25 20:08 | 43.27919 | 132.14218 | 6715 ft | 229 kts | 244° |
| 2026-04-25 20:08 | 43.27141 | 132.12304 | 6417 ft | 229 kts | 244° |
| 2026-04-25 20:08 | 43.26362 | 132.10399 | 6136 ft | 230 kts | 245° |
| 2026-04-25 20:08 | 43.25590 | 132.08513 | 5841 ft | 229 kts | 245° |
| 2026-04-25 20:09 | 43.24812 | 132.06610 | 5562 ft | 228 kts | 245° |
| 2026-04-25 20:09 | 43.24039 | 132.04724 | 5298 ft | 226 kts | 245° |
| 2026-04-25 20:09 | 43.23332 | 132.02830 | 5003 ft | 220 kts | 255° |
| 2026-04-25 20:09 | 43.23269 | 132.00765 | 4770 ft | 222 kts | 284° |
| 2026-04-25 20:10 | 43.23898 | 131.98808 | 4526 ft | 229 kts | 300° |
| 2026-04-25 20:10 | 43.24969 | 131.97177 | 4239 ft | 236 kts | 322° |
| 2026-04-25 20:10 | 43.26410 | 131.96135 | 3996 ft | 231 kts | 328° |
| 2026-04-25 20:10 | 43.27802 | 131.95123 | 3764 ft | 227 kts | 327° |
| 2026-04-25 20:11 | 43.29198 | 131.94174 | 3484 ft | 222 kts | 340° |
| 2026-04-25 20:11 | 43.30708 | 131.94257 | 3266 ft | 222 kts | 20° |
| 2026-04-25 20:11 | 43.31841 | 131.95657 | 3036 ft | 221 kts | 53° |
| 2026-04-25 20:11 | 43.32611 | 131.97476 | 2707 ft | 218 kts | 57° |
| 2026-04-25 20:12 | 43.33360 | 131.99275 | 2388 ft | 215 kts | 58° |
| 2026-04-25 20:12 | 43.34078 | 132.01054 | 2064 ft | 211 kts | 59° |
| 2026-04-25 20:12 | 43.34771 | 132.02776 | 1774 ft | 198 kts | 60° |
| 2026-04-25 20:12 | 43.35201 | 132.03843 | 1584 ft | 188 kts | 60° |
| 2026-04-25 20:13 | 43.35990 | 132.05799 | 1282 ft | 163 kts | 60° |
| 2026-04-25 20:13 | 43.36509 | 132.07083 | 1047 ft | 150 kts | 60° |
| 2026-04-25 20:13 | 43.37019 | 132.08346 | 838 ft | 152 kts | 60° |
| 2026-04-25 20:13 | 43.37530 | 132.09613 | 641 ft | 150 kts | 60° |
| 2026-04-25 20:14 | 43.38033 | 132.10864 | 415 ft | 148 kts | 60° |
| 2026-04-25 20:14 | 43.38534 | 132.12093 | 226 ft | 148 kts | 60° |
| 2026-04-25 20:14 | 43.39032 | 132.13326 | 49 ft | 146 kts | 59° |
| 2026-04-25 20:14 | 43.39490 | 132.14448 | 38 ft | 118 kts | 61° |
| 2026-04-25 20:15 | 43.39809 | 132.15243 | 39 ft | 75 kts | 61° |
| 2026-04-25 20:15 | 43.39986 | 132.15685 | 36 ft | 32 kts | 61° |
| 2026-04-25 20:15 | 43.40089 | 132.15940 | 36 ft | 30 kts | 60° |
| 2026-04-25 20:15 | 43.40191 | 132.16191 | 37 ft | 30 kts | 61° |
| 2026-04-25 20:16 | 43.40293 | 132.16445 | 38 ft | 32 kts | 61° |
| 2026-04-25 20:16 | 43.40390 | 132.16686 | 37 ft | 26 kts | 61° |
| 2026-04-25 20:16 | 43.40409 | 132.16850 | 37 ft | 16 kts | 129° |
| 2026-04-25 20:16 | 43.40349 | 132.16909 | 37 ft | 0 kts | 150° |
| 2026-04-25 20:18 | 43.40348 | 132.16910 | 37 ft | 2 kts | 150° |
| 2026-04-25 20:18 | 43.40312 | 132.16938 | 38 ft | 8 kts | 150° |
| 2026-04-25 20:18 | 43.40261 | 132.16978 | 38 ft | 9 kts | 150° |
| 2026-04-25 20:18 | 43.40207 | 132.17020 | 38 ft | 9 kts | 153° |
| 2026-04-25 20:19 | 43.40154 | 132.17058 | 38 ft | 6 kts | 152° |
| 2026-04-25 20:19 | 43.40113 | 132.17084 | 38 ft | 7 kts | 162° |
| 2026-04-25 20:19 | 43.40070 | 132.17067 | 38 ft | 7 kts | 220° |
| 2026-04-25 20:19 | 43.40042 | 132.17010 | 38 ft | 8 kts | 236° |
| 2026-04-25 20:20 | 43.40015 | 132.16942 | 38 ft | 9 kts | 243° |
| 2026-04-25 20:20 | 43.39985 | 132.16864 | 38 ft | 10 kts | 241° |
| 2026-04-25 20:20 | 43.39950 | 132.16775 | 38 ft | 11 kts | 241° |
| 2026-04-25 20:20 | 43.39910 | 132.16675 | 38 ft | 13 kts | 241° |
| 2026-04-25 20:21 | 43.39870 | 132.16578 | 38 ft | 6 kts | 240° |
| 2026-04-25 20:21 | 43.39847 | 132.16522 | 38 ft | 7 kts | 240° |
| 2026-04-25 20:21 | 43.39816 | 132.16456 | 38 ft | 9 kts | 229° |
| 2026-04-25 20:21 | 43.39776 | 132.16444 | 38 ft | 5 kts | 169° |
| 2026-04-25 20:22 | 43.39744 | 132.16463 | 38 ft | 2 kts | 153° |
| 2026-04-25 20:22 | 43.39735 | 132.16470 | 38 ft | 2 kts | 152° |
| 2026-04-25 20:22 | 43.39729 | 132.16475 | 38 ft | 0 kts | 152° |